<?xml version="1.0" encoding="UTF-8" standalone="no" ?>
<gpx xmlns="http://www.topografix.com/GPX/1/1" xmlns:xsi="http://www.w3.org/2001/XMLSchema-instance" xsi:schemaLocation="http://www.topografix.com/GPX/1/1 http://www.topografix.com/GPX/1/1/gpx.xsd" version="1.1" creator="VisuGPX - https://www.visugpx.com">
  <metadata>
    <name>Course à pied le matin</name>
  </metadata>
  <trk>
    <name><![CDATA[Course à pied le matin_1]]></name>
    <trkseg>
      <trkpt lat="48.62535" lon="7.17809">
        <ele>490.2</ele>
        <time>2024-01-25T09:55:18Z</time>
      </trkpt>
      <trkpt lat="48.62536" lon="7.17801">
        <ele>490.5</ele>
        <time>2024-01-25T09:55:23Z</time>
      </trkpt>
      <trkpt lat="48.62535" lon="7.17775">
        <ele>491.9</ele>
        <time>2024-01-25T09:55:32Z</time>
      </trkpt>
      <trkpt lat="48.62524" lon="7.17753">
        <ele>493.5</ele>
        <time>2024-01-25T09:55:41Z</time>
      </trkpt>
      <trkpt lat="48.62524" lon="7.17751">
        <ele>493.6</ele>
        <time>2024-01-25T09:55:42Z</time>
      </trkpt>
      <trkpt lat="48.62535" lon="7.1773">
        <ele>495.4</ele>
        <time>2024-01-25T09:55:51Z</time>
      </trkpt>
      <trkpt lat="48.62535" lon="7.17727">
        <ele>495.6</ele>
        <time>2024-01-25T09:55:52Z</time>
      </trkpt>
      <trkpt lat="48.62534" lon="7.177">
        <ele>498.2</ele>
        <time>2024-01-25T09:56:00Z</time>
      </trkpt>
      <trkpt lat="48.62524" lon="7.17676">
        <ele>501.4</ele>
        <time>2024-01-25T09:56:11Z</time>
      </trkpt>
      <trkpt lat="48.62513" lon="7.17653">
        <ele>504.7</ele>
        <time>2024-01-25T09:56:21Z</time>
      </trkpt>
      <trkpt lat="48.62503" lon="7.17629">
        <ele>509.1</ele>
        <time>2024-01-25T09:56:34Z</time>
      </trkpt>
      <trkpt lat="48.62503" lon="7.17628">
        <ele>509.3</ele>
        <time>2024-01-25T09:56:35Z</time>
      </trkpt>
      <trkpt lat="48.62491" lon="7.17607">
        <ele>513.6</ele>
        <time>2024-01-25T09:56:53Z</time>
      </trkpt>
      <trkpt lat="48.62476" lon="7.17591">
        <ele>517.4</ele>
        <time>2024-01-25T09:57:04Z</time>
      </trkpt>
      <trkpt lat="48.6246" lon="7.17578">
        <ele>521.7</ele>
        <time>2024-01-25T09:57:16Z</time>
      </trkpt>
      <trkpt lat="48.62444" lon="7.17566">
        <ele>525.8</ele>
        <time>2024-01-25T09:57:27Z</time>
      </trkpt>
      <trkpt lat="48.62431" lon="7.17558">
        <ele>528.5</ele>
        <time>2024-01-25T09:57:36Z</time>
      </trkpt>
      <trkpt lat="48.6242" lon="7.17533">
        <ele>530.8</ele>
        <time>2024-01-25T09:57:46Z</time>
      </trkpt>
      <trkpt lat="48.62407" lon="7.17512">
        <ele>531.3</ele>
        <time>2024-01-25T09:57:53Z</time>
      </trkpt>
      <trkpt lat="48.62392" lon="7.17494">
        <ele>531.7</ele>
        <time>2024-01-25T09:58:02Z</time>
      </trkpt>
      <trkpt lat="48.62378" lon="7.17482">
        <ele>532.3</ele>
        <time>2024-01-25T09:58:13Z</time>
      </trkpt>
      <trkpt lat="48.62359" lon="7.17475">
        <ele>533.8</ele>
        <time>2024-01-25T09:58:24Z</time>
      </trkpt>
      <trkpt lat="48.62342" lon="7.17464">
        <ele>534.5</ele>
        <time>2024-01-25T09:58:33Z</time>
      </trkpt>
      <trkpt lat="48.62323" lon="7.17468">
        <ele>533.9</ele>
        <time>2024-01-25T09:58:41Z</time>
      </trkpt>
      <trkpt lat="48.62304" lon="7.17473">
        <ele>533.7</ele>
        <time>2024-01-25T09:58:48Z</time>
      </trkpt>
      <trkpt lat="48.62283" lon="7.1748">
        <ele>533.4</ele>
        <time>2024-01-25T09:58:54Z</time>
      </trkpt>
      <trkpt lat="48.62266" lon="7.17495">
        <ele>532.4</ele>
        <time>2024-01-25T09:59:01Z</time>
      </trkpt>
      <trkpt lat="48.62252" lon="7.17513">
        <ele>531.6</ele>
        <time>2024-01-25T09:59:09Z</time>
      </trkpt>
      <trkpt lat="48.62239" lon="7.17531">
        <ele>531.2</ele>
        <time>2024-01-25T09:59:17Z</time>
      </trkpt>
      <trkpt lat="48.62232" lon="7.17541">
        <ele>531.3</ele>
        <time>2024-01-25T09:59:21Z</time>
      </trkpt>
      <trkpt lat="48.62215" lon="7.17552">
        <ele>531.4</ele>
        <time>2024-01-25T09:59:29Z</time>
      </trkpt>
      <trkpt lat="48.62199" lon="7.17566">
        <ele>531</ele>
        <time>2024-01-25T09:59:38Z</time>
      </trkpt>
      <trkpt lat="48.62181" lon="7.17578">
        <ele>530.4</ele>
        <time>2024-01-25T09:59:45Z</time>
      </trkpt>
      <trkpt lat="48.62174" lon="7.17586">
        <ele>530.2</ele>
        <time>2024-01-25T09:59:49Z</time>
      </trkpt>
      <trkpt lat="48.62166" lon="7.17614">
        <ele>528.7</ele>
        <time>2024-01-25T09:59:56Z</time>
      </trkpt>
      <trkpt lat="48.62151" lon="7.1763">
        <ele>527.1</ele>
        <time>2024-01-25T10:00:03Z</time>
      </trkpt>
      <trkpt lat="48.62134" lon="7.17643">
        <ele>526.1</ele>
        <time>2024-01-25T10:00:12Z</time>
      </trkpt>
      <trkpt lat="48.62116" lon="7.17651">
        <ele>525.6</ele>
        <time>2024-01-25T10:00:18Z</time>
      </trkpt>
      <trkpt lat="48.62097" lon="7.17662">
        <ele>524.3</ele>
        <time>2024-01-25T10:00:25Z</time>
      </trkpt>
      <trkpt lat="48.62083" lon="7.17681">
        <ele>522.5</ele>
        <time>2024-01-25T10:00:32Z</time>
      </trkpt>
      <trkpt lat="48.62078" lon="7.17707">
        <ele>521.4</ele>
        <time>2024-01-25T10:00:40Z</time>
      </trkpt>
      <trkpt lat="48.62069" lon="7.17732">
        <ele>520.6</ele>
        <time>2024-01-25T10:00:48Z</time>
      </trkpt>
      <trkpt lat="48.62057" lon="7.17757">
        <ele>519.2</ele>
        <time>2024-01-25T10:00:56Z</time>
      </trkpt>
      <trkpt lat="48.62048" lon="7.17787">
        <ele>517.9</ele>
        <time>2024-01-25T10:01:02Z</time>
      </trkpt>
      <trkpt lat="48.62036" lon="7.17807">
        <ele>517.7</ele>
        <time>2024-01-25T10:01:11Z</time>
      </trkpt>
      <trkpt lat="48.62019" lon="7.17819">
        <ele>518.4</ele>
        <time>2024-01-25T10:01:20Z</time>
      </trkpt>
      <trkpt lat="48.62012" lon="7.17845">
        <ele>519.7</ele>
        <time>2024-01-25T10:01:29Z</time>
      </trkpt>
      <trkpt lat="48.62012" lon="7.17846">
        <ele>519.7</ele>
        <time>2024-01-25T10:01:30Z</time>
      </trkpt>
      <trkpt lat="48.62016" lon="7.17859">
        <ele>520.2</ele>
        <time>2024-01-25T10:01:37Z</time>
      </trkpt>
      <trkpt lat="48.62012" lon="7.17868">
        <ele>520.6</ele>
        <time>2024-01-25T10:03:07Z</time>
      </trkpt>
      <trkpt lat="48.62011" lon="7.17868">
        <ele>520.6</ele>
        <time>2024-01-25T10:03:08Z</time>
      </trkpt>
      <trkpt lat="48.62007" lon="7.17873">
        <ele>520.6</ele>
        <time>2024-01-25T10:03:12Z</time>
      </trkpt>
      <trkpt lat="48.62004" lon="7.17867">
        <ele>520.6</ele>
        <time>2024-01-25T10:03:18Z</time>
      </trkpt>
      <trkpt lat="48.62" lon="7.17857">
        <ele>520.5</ele>
        <time>2024-01-25T10:03:25Z</time>
      </trkpt>
      <trkpt lat="48.6199" lon="7.1787">
        <ele>520.1</ele>
        <time>2024-01-25T10:03:31Z</time>
      </trkpt>
      <trkpt lat="48.61971" lon="7.1787">
        <ele>516.7</ele>
        <time>2024-01-25T10:03:41Z</time>
      </trkpt>
      <trkpt lat="48.61953" lon="7.1788">
        <ele>514.6</ele>
        <time>2024-01-25T10:03:47Z</time>
      </trkpt>
      <trkpt lat="48.6195" lon="7.17881">
        <ele>514.3</ele>
        <time>2024-01-25T10:03:48Z</time>
      </trkpt>
      <trkpt lat="48.61941" lon="7.17882">
        <ele>514.1</ele>
        <time>2024-01-25T10:03:51Z</time>
      </trkpt>
      <trkpt lat="48.61935" lon="7.17888">
        <ele>513.9</ele>
        <time>2024-01-25T10:03:53Z</time>
      </trkpt>
      <trkpt lat="48.61925" lon="7.17898">
        <ele>513.4</ele>
        <time>2024-01-25T10:03:56Z</time>
      </trkpt>
      <trkpt lat="48.61919" lon="7.17905">
        <ele>513.3</ele>
        <time>2024-01-25T10:03:58Z</time>
      </trkpt>
      <trkpt lat="48.61899" lon="7.1792">
        <ele>514.9</ele>
        <time>2024-01-25T10:04:03Z</time>
      </trkpt>
      <trkpt lat="48.61883" lon="7.17938">
        <ele>509.7</ele>
        <time>2024-01-25T10:04:08Z</time>
      </trkpt>
      <trkpt lat="48.61865" lon="7.17947">
        <ele>506.9</ele>
        <time>2024-01-25T10:04:13Z</time>
      </trkpt>
      <trkpt lat="48.61846" lon="7.17946">
        <ele>507.4</ele>
        <time>2024-01-25T10:04:19Z</time>
      </trkpt>
      <trkpt lat="48.61825" lon="7.17947">
        <ele>507.9</ele>
        <time>2024-01-25T10:04:25Z</time>
      </trkpt>
      <trkpt lat="48.61806" lon="7.17945">
        <ele>509.2</ele>
        <time>2024-01-25T10:04:31Z</time>
      </trkpt>
      <trkpt lat="48.61787" lon="7.17944">
        <ele>510.5</ele>
        <time>2024-01-25T10:04:38Z</time>
      </trkpt>
      <trkpt lat="48.61767" lon="7.17945">
        <ele>511.7</ele>
        <time>2024-01-25T10:04:45Z</time>
      </trkpt>
      <trkpt lat="48.61748" lon="7.17938">
        <ele>512.9</ele>
        <time>2024-01-25T10:04:52Z</time>
      </trkpt>
      <trkpt lat="48.6173" lon="7.1793">
        <ele>513.6</ele>
        <time>2024-01-25T10:04:58Z</time>
      </trkpt>
      <trkpt lat="48.61711" lon="7.17915">
        <ele>514.1</ele>
        <time>2024-01-25T10:05:04Z</time>
      </trkpt>
      <trkpt lat="48.61694" lon="7.17903">
        <ele>514.5</ele>
        <time>2024-01-25T10:05:10Z</time>
      </trkpt>
      <trkpt lat="48.61676" lon="7.17895">
        <ele>515.3</ele>
        <time>2024-01-25T10:05:17Z</time>
      </trkpt>
      <trkpt lat="48.61655" lon="7.1789">
        <ele>516.6</ele>
        <time>2024-01-25T10:05:24Z</time>
      </trkpt>
      <trkpt lat="48.61636" lon="7.17886">
        <ele>518</ele>
        <time>2024-01-25T10:05:31Z</time>
      </trkpt>
      <trkpt lat="48.61629" lon="7.17887">
        <ele>518.5</ele>
        <time>2024-01-25T10:05:35Z</time>
      </trkpt>
      <trkpt lat="48.61641" lon="7.17907">
        <ele>518.9</ele>
        <time>2024-01-25T10:05:42Z</time>
      </trkpt>
      <trkpt lat="48.61651" lon="7.1793">
        <ele>518.8</ele>
        <time>2024-01-25T10:05:48Z</time>
      </trkpt>
      <trkpt lat="48.61658" lon="7.17955">
        <ele>518.8</ele>
        <time>2024-01-25T10:05:54Z</time>
      </trkpt>
      <trkpt lat="48.61664" lon="7.17984">
        <ele>518.9</ele>
        <time>2024-01-25T10:06:00Z</time>
      </trkpt>
      <trkpt lat="48.61662" lon="7.18015">
        <ele>518.8</ele>
        <time>2024-01-25T10:06:06Z</time>
      </trkpt>
      <trkpt lat="48.61659" lon="7.18045">
        <ele>518.6</ele>
        <time>2024-01-25T10:06:12Z</time>
      </trkpt>
      <trkpt lat="48.61649" lon="7.18069">
        <ele>518.4</ele>
        <time>2024-01-25T10:06:18Z</time>
      </trkpt>
      <trkpt lat="48.61638" lon="7.18092">
        <ele>518</ele>
        <time>2024-01-25T10:06:23Z</time>
      </trkpt>
      <trkpt lat="48.61628" lon="7.18115">
        <ele>517.6</ele>
        <time>2024-01-25T10:06:28Z</time>
      </trkpt>
      <trkpt lat="48.61612" lon="7.18134">
        <ele>517.6</ele>
        <time>2024-01-25T10:06:34Z</time>
      </trkpt>
      <trkpt lat="48.61595" lon="7.18152">
        <ele>518.5</ele>
        <time>2024-01-25T10:06:41Z</time>
      </trkpt>
      <trkpt lat="48.61576" lon="7.1816">
        <ele>519.3</ele>
        <time>2024-01-25T10:06:47Z</time>
      </trkpt>
      <trkpt lat="48.61557" lon="7.18164">
        <ele>520</ele>
        <time>2024-01-25T10:06:53Z</time>
      </trkpt>
      <trkpt lat="48.61538" lon="7.18163">
        <ele>520.8</ele>
        <time>2024-01-25T10:07:00Z</time>
      </trkpt>
      <trkpt lat="48.61517" lon="7.1816">
        <ele>521.3</ele>
        <time>2024-01-25T10:07:06Z</time>
      </trkpt>
      <trkpt lat="48.61498" lon="7.18156">
        <ele>521.3</ele>
        <time>2024-01-25T10:07:11Z</time>
      </trkpt>
      <trkpt lat="48.61477" lon="7.18155">
        <ele>521.1</ele>
        <time>2024-01-25T10:07:17Z</time>
      </trkpt>
      <trkpt lat="48.61459" lon="7.18157">
        <ele>521</ele>
        <time>2024-01-25T10:07:22Z</time>
      </trkpt>
      <trkpt lat="48.61438" lon="7.18152">
        <ele>521.2</ele>
        <time>2024-01-25T10:07:28Z</time>
      </trkpt>
      <trkpt lat="48.61419" lon="7.18151">
        <ele>522.2</ele>
        <time>2024-01-25T10:07:34Z</time>
      </trkpt>
      <trkpt lat="48.614" lon="7.18161">
        <ele>523.7</ele>
        <time>2024-01-25T10:07:41Z</time>
      </trkpt>
      <trkpt lat="48.6139" lon="7.18185">
        <ele>524</ele>
        <time>2024-01-25T10:07:47Z</time>
      </trkpt>
      <trkpt lat="48.61382" lon="7.18211">
        <ele>525.2</ele>
        <time>2024-01-25T10:07:56Z</time>
      </trkpt>
      <trkpt lat="48.61375" lon="7.18237">
        <ele>527</ele>
        <time>2024-01-25T10:08:04Z</time>
      </trkpt>
      <trkpt lat="48.61365" lon="7.18262">
        <ele>528.6</ele>
        <time>2024-01-25T10:08:12Z</time>
      </trkpt>
      <trkpt lat="48.61355" lon="7.18286">
        <ele>530</ele>
        <time>2024-01-25T10:08:19Z</time>
      </trkpt>
      <trkpt lat="48.61346" lon="7.18311">
        <ele>531.4</ele>
        <time>2024-01-25T10:08:29Z</time>
      </trkpt>
      <trkpt lat="48.61338" lon="7.18338">
        <ele>532.7</ele>
        <time>2024-01-25T10:08:37Z</time>
      </trkpt>
      <trkpt lat="48.61335" lon="7.18366">
        <ele>533.5</ele>
        <time>2024-01-25T10:08:43Z</time>
      </trkpt>
      <trkpt lat="48.61328" lon="7.18397">
        <ele>534.1</ele>
        <time>2024-01-25T10:08:49Z</time>
      </trkpt>
      <trkpt lat="48.61316" lon="7.18416">
        <ele>535.1</ele>
        <time>2024-01-25T10:08:54Z</time>
      </trkpt>
      <trkpt lat="48.61312" lon="7.18413">
        <ele>535.6</ele>
        <time>2024-01-25T10:08:56Z</time>
      </trkpt>
      <trkpt lat="48.61301" lon="7.18391">
        <ele>538</ele>
        <time>2024-01-25T10:09:07Z</time>
      </trkpt>
      <trkpt lat="48.61297" lon="7.18373">
        <ele>540</ele>
        <time>2024-01-25T10:09:15Z</time>
      </trkpt>
      <trkpt lat="48.61291" lon="7.18351">
        <ele>543.1</ele>
        <time>2024-01-25T10:09:26Z</time>
      </trkpt>
      <trkpt lat="48.61288" lon="7.18347">
        <ele>544</ele>
        <time>2024-01-25T10:09:30Z</time>
      </trkpt>
      <trkpt lat="48.61284" lon="7.18335">
        <ele>546.6</ele>
        <time>2024-01-25T10:09:38Z</time>
      </trkpt>
      <trkpt lat="48.61279" lon="7.18332">
        <ele>548.3</ele>
        <time>2024-01-25T10:09:43Z</time>
      </trkpt>
      <trkpt lat="48.61262" lon="7.18342">
        <ele>552.9</ele>
        <time>2024-01-25T10:09:55Z</time>
      </trkpt>
      <trkpt lat="48.61243" lon="7.18343">
        <ele>555.8</ele>
        <time>2024-01-25T10:10:07Z</time>
      </trkpt>
      <trkpt lat="48.61224" lon="7.18344">
        <ele>558.7</ele>
        <time>2024-01-25T10:10:16Z</time>
      </trkpt>
      <trkpt lat="48.61204" lon="7.18341">
        <ele>560.5</ele>
        <time>2024-01-25T10:10:24Z</time>
      </trkpt>
      <trkpt lat="48.61184" lon="7.18334">
        <ele>561.4</ele>
        <time>2024-01-25T10:10:32Z</time>
      </trkpt>
      <trkpt lat="48.61165" lon="7.18332">
        <ele>562.7</ele>
        <time>2024-01-25T10:10:39Z</time>
      </trkpt>
      <trkpt lat="48.61147" lon="7.18331">
        <ele>564.5</ele>
        <time>2024-01-25T10:10:46Z</time>
      </trkpt>
      <trkpt lat="48.61128" lon="7.18335">
        <ele>565.6</ele>
        <time>2024-01-25T10:10:53Z</time>
      </trkpt>
      <trkpt lat="48.61108" lon="7.18339">
        <ele>565.2</ele>
        <time>2024-01-25T10:11:00Z</time>
      </trkpt>
      <trkpt lat="48.6109" lon="7.1834">
        <ele>562.8</ele>
        <time>2024-01-25T10:11:06Z</time>
      </trkpt>
      <trkpt lat="48.6107" lon="7.1833">
        <ele>559.4</ele>
        <time>2024-01-25T10:11:12Z</time>
      </trkpt>
      <trkpt lat="48.61053" lon="7.18316">
        <ele>556.7</ele>
        <time>2024-01-25T10:11:18Z</time>
      </trkpt>
      <trkpt lat="48.61037" lon="7.18303">
        <ele>554.1</ele>
        <time>2024-01-25T10:11:24Z</time>
      </trkpt>
      <trkpt lat="48.61022" lon="7.18284">
        <ele>551.4</ele>
        <time>2024-01-25T10:11:30Z</time>
      </trkpt>
      <trkpt lat="48.61005" lon="7.18273">
        <ele>548.5</ele>
        <time>2024-01-25T10:11:36Z</time>
      </trkpt>
      <trkpt lat="48.60987" lon="7.18258">
        <ele>545.2</ele>
        <time>2024-01-25T10:11:43Z</time>
      </trkpt>
      <trkpt lat="48.60967" lon="7.18262">
        <ele>541.4</ele>
        <time>2024-01-25T10:11:49Z</time>
      </trkpt>
      <trkpt lat="48.60947" lon="7.1826">
        <ele>537.1</ele>
        <time>2024-01-25T10:11:55Z</time>
      </trkpt>
      <trkpt lat="48.60926" lon="7.18258">
        <ele>532.4</ele>
        <time>2024-01-25T10:12:01Z</time>
      </trkpt>
      <trkpt lat="48.60908" lon="7.18265">
        <ele>528.6</ele>
        <time>2024-01-25T10:12:08Z</time>
      </trkpt>
      <trkpt lat="48.60887" lon="7.1827">
        <ele>527.7</ele>
        <time>2024-01-25T10:12:15Z</time>
      </trkpt>
      <trkpt lat="48.60871" lon="7.18288">
        <ele>527</ele>
        <time>2024-01-25T10:12:22Z</time>
      </trkpt>
      <trkpt lat="48.60857" lon="7.1831">
        <ele>524.2</ele>
        <time>2024-01-25T10:12:30Z</time>
      </trkpt>
      <trkpt lat="48.60847" lon="7.18324">
        <ele>523.5</ele>
        <time>2024-01-25T10:12:36Z</time>
      </trkpt>
      <trkpt lat="48.60828" lon="7.18328">
        <ele>523.8</ele>
        <time>2024-01-25T10:12:43Z</time>
      </trkpt>
      <trkpt lat="48.60808" lon="7.18337">
        <ele>524.3</ele>
        <time>2024-01-25T10:12:50Z</time>
      </trkpt>
      <trkpt lat="48.60793" lon="7.18357">
        <ele>524.7</ele>
        <time>2024-01-25T10:12:56Z</time>
      </trkpt>
      <trkpt lat="48.6078" lon="7.18381">
        <ele>525.1</ele>
        <time>2024-01-25T10:13:03Z</time>
      </trkpt>
      <trkpt lat="48.60771" lon="7.18388">
        <ele>525.9</ele>
        <time>2024-01-25T10:13:07Z</time>
      </trkpt>
      <trkpt lat="48.60753" lon="7.18385">
        <ele>528</ele>
        <time>2024-01-25T10:13:18Z</time>
      </trkpt>
      <trkpt lat="48.60735" lon="7.18391">
        <ele>530.2</ele>
        <time>2024-01-25T10:13:35Z</time>
      </trkpt>
      <trkpt lat="48.60734" lon="7.18393">
        <ele>530.5</ele>
        <time>2024-01-25T10:13:36Z</time>
      </trkpt>
      <trkpt lat="48.60722" lon="7.18417">
        <ele>532.7</ele>
        <time>2024-01-25T10:13:47Z</time>
      </trkpt>
      <trkpt lat="48.60716" lon="7.18445">
        <ele>534.6</ele>
        <time>2024-01-25T10:13:56Z</time>
      </trkpt>
      <trkpt lat="48.60713" lon="7.18476">
        <ele>536.4</ele>
        <time>2024-01-25T10:14:04Z</time>
      </trkpt>
      <trkpt lat="48.60707" lon="7.18503">
        <ele>537.7</ele>
        <time>2024-01-25T10:14:11Z</time>
      </trkpt>
      <trkpt lat="48.60704" lon="7.18534">
        <ele>538</ele>
        <time>2024-01-25T10:14:18Z</time>
      </trkpt>
      <trkpt lat="48.60702" lon="7.18561">
        <ele>537.8</ele>
        <time>2024-01-25T10:14:23Z</time>
      </trkpt>
      <trkpt lat="48.60702" lon="7.18591">
        <ele>538</ele>
        <time>2024-01-25T10:14:29Z</time>
      </trkpt>
      <trkpt lat="48.60698" lon="7.1862">
        <ele>538.6</ele>
        <time>2024-01-25T10:14:36Z</time>
      </trkpt>
      <trkpt lat="48.60688" lon="7.18648">
        <ele>539.4</ele>
        <time>2024-01-25T10:14:43Z</time>
      </trkpt>
      <trkpt lat="48.60678" lon="7.18673">
        <ele>540.3</ele>
        <time>2024-01-25T10:14:50Z</time>
      </trkpt>
      <trkpt lat="48.60665" lon="7.18698">
        <ele>541.2</ele>
        <time>2024-01-25T10:14:57Z</time>
      </trkpt>
      <trkpt lat="48.60647" lon="7.18712">
        <ele>542.1</ele>
        <time>2024-01-25T10:15:03Z</time>
      </trkpt>
      <trkpt lat="48.60628" lon="7.1872">
        <ele>543</ele>
        <time>2024-01-25T10:15:09Z</time>
      </trkpt>
      <trkpt lat="48.60609" lon="7.18723">
        <ele>544.1</ele>
        <time>2024-01-25T10:15:16Z</time>
      </trkpt>
      <trkpt lat="48.60589" lon="7.18721">
        <ele>545.3</ele>
        <time>2024-01-25T10:15:23Z</time>
      </trkpt>
      <trkpt lat="48.60572" lon="7.18709">
        <ele>546.1</ele>
        <time>2024-01-25T10:15:29Z</time>
      </trkpt>
      <trkpt lat="48.60555" lon="7.18697">
        <ele>546.5</ele>
        <time>2024-01-25T10:15:36Z</time>
      </trkpt>
      <trkpt lat="48.60536" lon="7.18692">
        <ele>546.3</ele>
        <time>2024-01-25T10:15:42Z</time>
      </trkpt>
      <trkpt lat="48.60518" lon="7.18685">
        <ele>546</ele>
        <time>2024-01-25T10:15:48Z</time>
      </trkpt>
      <trkpt lat="48.60498" lon="7.18678">
        <ele>545.6</ele>
        <time>2024-01-25T10:15:55Z</time>
      </trkpt>
      <trkpt lat="48.60477" lon="7.18675">
        <ele>545.2</ele>
        <time>2024-01-25T10:16:02Z</time>
      </trkpt>
      <trkpt lat="48.60458" lon="7.18675">
        <ele>544.5</ele>
        <time>2024-01-25T10:16:08Z</time>
      </trkpt>
      <trkpt lat="48.6044" lon="7.1868">
        <ele>543.7</ele>
        <time>2024-01-25T10:16:13Z</time>
      </trkpt>
      <trkpt lat="48.60421" lon="7.18685">
        <ele>543.6</ele>
        <time>2024-01-25T10:16:19Z</time>
      </trkpt>
      <trkpt lat="48.60403" lon="7.18693">
        <ele>543.8</ele>
        <time>2024-01-25T10:16:25Z</time>
      </trkpt>
      <trkpt lat="48.60384" lon="7.18711">
        <ele>544.2</ele>
        <time>2024-01-25T10:16:31Z</time>
      </trkpt>
      <trkpt lat="48.6037" lon="7.18731">
        <ele>544.7</ele>
        <time>2024-01-25T10:16:36Z</time>
      </trkpt>
      <trkpt lat="48.60358" lon="7.18757">
        <ele>545.5</ele>
        <time>2024-01-25T10:16:42Z</time>
      </trkpt>
      <trkpt lat="48.60349" lon="7.18782">
        <ele>545.2</ele>
        <time>2024-01-25T10:16:48Z</time>
      </trkpt>
      <trkpt lat="48.60345" lon="7.18812">
        <ele>544.9</ele>
        <time>2024-01-25T10:16:54Z</time>
      </trkpt>
      <trkpt lat="48.60343" lon="7.18841">
        <ele>544.8</ele>
        <time>2024-01-25T10:17:00Z</time>
      </trkpt>
      <trkpt lat="48.60341" lon="7.18872">
        <ele>544.1</ele>
        <time>2024-01-25T10:17:07Z</time>
      </trkpt>
      <trkpt lat="48.60332" lon="7.18895">
        <ele>543.6</ele>
        <time>2024-01-25T10:17:13Z</time>
      </trkpt>
      <trkpt lat="48.6032" lon="7.1892">
        <ele>543</ele>
        <time>2024-01-25T10:17:22Z</time>
      </trkpt>
      <trkpt lat="48.60308" lon="7.1894">
        <ele>542.8</ele>
        <time>2024-01-25T10:17:31Z</time>
      </trkpt>
      <trkpt lat="48.6029" lon="7.18952">
        <ele>542.6</ele>
        <time>2024-01-25T10:17:40Z</time>
      </trkpt>
      <trkpt lat="48.60268" lon="7.1896">
        <ele>542.3</ele>
        <time>2024-01-25T10:17:45Z</time>
      </trkpt>
      <trkpt lat="48.60246" lon="7.18964">
        <ele>541.9</ele>
        <time>2024-01-25T10:17:48Z</time>
      </trkpt>
      <trkpt lat="48.60225" lon="7.18968">
        <ele>541.5</ele>
        <time>2024-01-25T10:17:51Z</time>
      </trkpt>
      <trkpt lat="48.60206" lon="7.18974">
        <ele>541</ele>
        <time>2024-01-25T10:17:55Z</time>
      </trkpt>
      <trkpt lat="48.60186" lon="7.18981">
        <ele>540.8</ele>
        <time>2024-01-25T10:18:01Z</time>
      </trkpt>
      <trkpt lat="48.60168" lon="7.18988">
        <ele>540.8</ele>
        <time>2024-01-25T10:18:06Z</time>
      </trkpt>
      <trkpt lat="48.60148" lon="7.18999">
        <ele>540.9</ele>
        <time>2024-01-25T10:18:12Z</time>
      </trkpt>
      <trkpt lat="48.6013" lon="7.19012">
        <ele>540.8</ele>
        <time>2024-01-25T10:18:18Z</time>
      </trkpt>
      <trkpt lat="48.60118" lon="7.19035">
        <ele>540.6</ele>
        <time>2024-01-25T10:18:24Z</time>
      </trkpt>
      <trkpt lat="48.60121" lon="7.19059">
        <ele>540.4</ele>
        <time>2024-01-25T10:18:32Z</time>
      </trkpt>
      <trkpt lat="48.60133" lon="7.19084">
        <ele>540.1</ele>
        <time>2024-01-25T10:18:42Z</time>
      </trkpt>
      <trkpt lat="48.6015" lon="7.19101">
        <ele>539.6</ele>
        <time>2024-01-25T10:18:50Z</time>
      </trkpt>
      <trkpt lat="48.6017" lon="7.19116">
        <ele>539.1</ele>
        <time>2024-01-25T10:18:56Z</time>
      </trkpt>
      <trkpt lat="48.60186" lon="7.19131">
        <ele>538.8</ele>
        <time>2024-01-25T10:19:01Z</time>
      </trkpt>
      <trkpt lat="48.60202" lon="7.19146">
        <ele>538.5</ele>
        <time>2024-01-25T10:19:07Z</time>
      </trkpt>
      <trkpt lat="48.60217" lon="7.19169">
        <ele>538.2</ele>
        <time>2024-01-25T10:19:13Z</time>
      </trkpt>
      <trkpt lat="48.60232" lon="7.19188">
        <ele>538</ele>
        <time>2024-01-25T10:19:19Z</time>
      </trkpt>
      <trkpt lat="48.60249" lon="7.192">
        <ele>537.7</ele>
        <time>2024-01-25T10:19:25Z</time>
      </trkpt>
      <trkpt lat="48.60268" lon="7.19212">
        <ele>537.2</ele>
        <time>2024-01-25T10:19:31Z</time>
      </trkpt>
      <trkpt lat="48.60285" lon="7.19223">
        <ele>536.8</ele>
        <time>2024-01-25T10:19:36Z</time>
      </trkpt>
      <trkpt lat="48.60304" lon="7.19235">
        <ele>536.4</ele>
        <time>2024-01-25T10:19:42Z</time>
      </trkpt>
      <trkpt lat="48.60321" lon="7.19246">
        <ele>536.1</ele>
        <time>2024-01-25T10:19:48Z</time>
      </trkpt>
      <trkpt lat="48.6034" lon="7.19258">
        <ele>535.8</ele>
        <time>2024-01-25T10:19:54Z</time>
      </trkpt>
      <trkpt lat="48.6036" lon="7.19267">
        <ele>535.3</ele>
        <time>2024-01-25T10:20:00Z</time>
      </trkpt>
      <trkpt lat="48.60377" lon="7.1928">
        <ele>535</ele>
        <time>2024-01-25T10:20:05Z</time>
      </trkpt>
      <trkpt lat="48.60392" lon="7.19294">
        <ele>534.9</ele>
        <time>2024-01-25T10:20:10Z</time>
      </trkpt>
      <trkpt lat="48.60407" lon="7.19312">
        <ele>534.7</ele>
        <time>2024-01-25T10:20:15Z</time>
      </trkpt>
      <trkpt lat="48.60425" lon="7.19327">
        <ele>534.5</ele>
        <time>2024-01-25T10:20:21Z</time>
      </trkpt>
      <trkpt lat="48.60442" lon="7.19346">
        <ele>534.1</ele>
        <time>2024-01-25T10:20:26Z</time>
      </trkpt>
      <trkpt lat="48.60456" lon="7.19368">
        <ele>533.3</ele>
        <time>2024-01-25T10:20:31Z</time>
      </trkpt>
      <trkpt lat="48.60467" lon="7.19392">
        <ele>532.5</ele>
        <time>2024-01-25T10:20:36Z</time>
      </trkpt>
      <trkpt lat="48.60479" lon="7.1942">
        <ele>531.6</ele>
        <time>2024-01-25T10:20:42Z</time>
      </trkpt>
      <trkpt lat="48.60483" lon="7.1945">
        <ele>530.7</ele>
        <time>2024-01-25T10:20:48Z</time>
      </trkpt>
      <trkpt lat="48.60481" lon="7.19482">
        <ele>529.8</ele>
        <time>2024-01-25T10:20:54Z</time>
      </trkpt>
      <trkpt lat="48.60471" lon="7.19509">
        <ele>528.8</ele>
        <time>2024-01-25T10:21:00Z</time>
      </trkpt>
      <trkpt lat="48.60457" lon="7.19535">
        <ele>527.8</ele>
        <time>2024-01-25T10:21:06Z</time>
      </trkpt>
      <trkpt lat="48.60444" lon="7.19556">
        <ele>527</ele>
        <time>2024-01-25T10:21:11Z</time>
      </trkpt>
      <trkpt lat="48.60426" lon="7.19573">
        <ele>526.1</ele>
        <time>2024-01-25T10:21:17Z</time>
      </trkpt>
      <trkpt lat="48.60407" lon="7.19582">
        <ele>525.2</ele>
        <time>2024-01-25T10:21:23Z</time>
      </trkpt>
      <trkpt lat="48.60389" lon="7.1959">
        <ele>524.3</ele>
        <time>2024-01-25T10:21:29Z</time>
      </trkpt>
      <trkpt lat="48.6037" lon="7.19602">
        <ele>523.3</ele>
        <time>2024-01-25T10:21:35Z</time>
      </trkpt>
      <trkpt lat="48.60354" lon="7.19622">
        <ele>522.4</ele>
        <time>2024-01-25T10:21:41Z</time>
      </trkpt>
      <trkpt lat="48.60345" lon="7.19646">
        <ele>521.7</ele>
        <time>2024-01-25T10:21:46Z</time>
      </trkpt>
      <trkpt lat="48.60336" lon="7.19675">
        <ele>520.9</ele>
        <time>2024-01-25T10:21:52Z</time>
      </trkpt>
      <trkpt lat="48.60323" lon="7.19694">
        <ele>520.1</ele>
        <time>2024-01-25T10:21:57Z</time>
      </trkpt>
      <trkpt lat="48.60306" lon="7.19705">
        <ele>519.3</ele>
        <time>2024-01-25T10:22:02Z</time>
      </trkpt>
      <trkpt lat="48.60287" lon="7.19718">
        <ele>518.4</ele>
        <time>2024-01-25T10:22:08Z</time>
      </trkpt>
      <trkpt lat="48.60269" lon="7.19732">
        <ele>517.5</ele>
        <time>2024-01-25T10:22:14Z</time>
      </trkpt>
      <trkpt lat="48.60253" lon="7.19745">
        <ele>516.7</ele>
        <time>2024-01-25T10:22:19Z</time>
      </trkpt>
      <trkpt lat="48.60235" lon="7.19761">
        <ele>515.8</ele>
        <time>2024-01-25T10:22:25Z</time>
      </trkpt>
      <trkpt lat="48.6022" lon="7.19783">
        <ele>514.8</ele>
        <time>2024-01-25T10:22:31Z</time>
      </trkpt>
      <trkpt lat="48.60212" lon="7.1981">
        <ele>513.9</ele>
        <time>2024-01-25T10:22:37Z</time>
      </trkpt>
      <trkpt lat="48.60203" lon="7.19839">
        <ele>513</ele>
        <time>2024-01-25T10:22:44Z</time>
      </trkpt>
      <trkpt lat="48.60196" lon="7.19867">
        <ele>512.2</ele>
        <time>2024-01-25T10:22:50Z</time>
      </trkpt>
      <trkpt lat="48.60187" lon="7.19894">
        <ele>511.5</ele>
        <time>2024-01-25T10:22:56Z</time>
      </trkpt>
      <trkpt lat="48.60178" lon="7.19921">
        <ele>510.7</ele>
        <time>2024-01-25T10:23:02Z</time>
      </trkpt>
      <trkpt lat="48.60168" lon="7.19947">
        <ele>509.9</ele>
        <time>2024-01-25T10:23:08Z</time>
      </trkpt>
      <trkpt lat="48.60155" lon="7.19972">
        <ele>509.1</ele>
        <time>2024-01-25T10:23:14Z</time>
      </trkpt>
      <trkpt lat="48.60144" lon="7.19996">
        <ele>508.3</ele>
        <time>2024-01-25T10:23:20Z</time>
      </trkpt>
      <trkpt lat="48.60134" lon="7.20021">
        <ele>507.6</ele>
        <time>2024-01-25T10:23:26Z</time>
      </trkpt>
      <trkpt lat="48.60124" lon="7.20045">
        <ele>507</ele>
        <time>2024-01-25T10:23:32Z</time>
      </trkpt>
      <trkpt lat="48.60111" lon="7.20065">
        <ele>506.4</ele>
        <time>2024-01-25T10:23:37Z</time>
      </trkpt>
      <trkpt lat="48.60097" lon="7.20084">
        <ele>506.2</ele>
        <time>2024-01-25T10:23:42Z</time>
      </trkpt>
      <trkpt lat="48.6009" lon="7.20087">
        <ele>506.3</ele>
        <time>2024-01-25T10:23:43Z</time>
      </trkpt>
      <trkpt lat="48.60069" lon="7.20079">
        <ele>506.5</ele>
        <time>2024-01-25T10:23:50Z</time>
      </trkpt>
      <trkpt lat="48.60052" lon="7.20067">
        <ele>506.7</ele>
        <time>2024-01-25T10:23:55Z</time>
      </trkpt>
      <trkpt lat="48.60037" lon="7.20051">
        <ele>506.9</ele>
        <time>2024-01-25T10:24:00Z</time>
      </trkpt>
      <trkpt lat="48.60022" lon="7.20034">
        <ele>507.1</ele>
        <time>2024-01-25T10:24:05Z</time>
      </trkpt>
      <trkpt lat="48.60004" lon="7.20017">
        <ele>507.4</ele>
        <time>2024-01-25T10:24:11Z</time>
      </trkpt>
      <trkpt lat="48.59986" lon="7.2">
        <ele>507.8</ele>
        <time>2024-01-25T10:24:17Z</time>
      </trkpt>
      <trkpt lat="48.59966" lon="7.19989">
        <ele>508.2</ele>
        <time>2024-01-25T10:24:23Z</time>
      </trkpt>
      <trkpt lat="48.59948" lon="7.19975">
        <ele>508.6</ele>
        <time>2024-01-25T10:24:29Z</time>
      </trkpt>
      <trkpt lat="48.59928" lon="7.19964">
        <ele>509.2</ele>
        <time>2024-01-25T10:24:35Z</time>
      </trkpt>
      <trkpt lat="48.5991" lon="7.19968">
        <ele>509.8</ele>
        <time>2024-01-25T10:24:41Z</time>
      </trkpt>
      <trkpt lat="48.59896" lon="7.19992">
        <ele>510.5</ele>
        <time>2024-01-25T10:24:47Z</time>
      </trkpt>
      <trkpt lat="48.59895" lon="7.20021">
        <ele>511</ele>
        <time>2024-01-25T10:24:51Z</time>
      </trkpt>
      <trkpt lat="48.59904" lon="7.20046">
        <ele>511.5</ele>
        <time>2024-01-25T10:24:57Z</time>
      </trkpt>
      <trkpt lat="48.59924" lon="7.20044">
        <ele>511.8</ele>
        <time>2024-01-25T10:25:03Z</time>
      </trkpt>
      <trkpt lat="48.59942" lon="7.20052">
        <ele>510.7</ele>
        <time>2024-01-25T10:25:09Z</time>
      </trkpt>
      <trkpt lat="48.59959" lon="7.20069">
        <ele>509.2</ele>
        <time>2024-01-25T10:25:15Z</time>
      </trkpt>
      <trkpt lat="48.59969" lon="7.20096">
        <ele>507.6</ele>
        <time>2024-01-25T10:25:21Z</time>
      </trkpt>
      <trkpt lat="48.59978" lon="7.20123">
        <ele>506</ele>
        <time>2024-01-25T10:25:27Z</time>
      </trkpt>
      <trkpt lat="48.59988" lon="7.20148">
        <ele>504.5</ele>
        <time>2024-01-25T10:25:33Z</time>
      </trkpt>
      <trkpt lat="48.59994" lon="7.20174">
        <ele>503.2</ele>
        <time>2024-01-25T10:25:38Z</time>
      </trkpt>
      <trkpt lat="48.59991" lon="7.20201">
        <ele>501.7</ele>
        <time>2024-01-25T10:25:43Z</time>
      </trkpt>
      <trkpt lat="48.59975" lon="7.20217">
        <ele>500.6</ele>
        <time>2024-01-25T10:25:49Z</time>
      </trkpt>
      <trkpt lat="48.59955" lon="7.20225">
        <ele>499.3</ele>
        <time>2024-01-25T10:25:55Z</time>
      </trkpt>
      <trkpt lat="48.59935" lon="7.20237">
        <ele>497.9</ele>
        <time>2024-01-25T10:26:01Z</time>
      </trkpt>
      <trkpt lat="48.59918" lon="7.2025">
        <ele>496.7</ele>
        <time>2024-01-25T10:26:07Z</time>
      </trkpt>
      <trkpt lat="48.599" lon="7.20265">
        <ele>495.6</ele>
        <time>2024-01-25T10:26:13Z</time>
      </trkpt>
      <trkpt lat="48.59884" lon="7.20277">
        <ele>494.4</ele>
        <time>2024-01-25T10:26:18Z</time>
      </trkpt>
      <trkpt lat="48.59865" lon="7.20285">
        <ele>492.8</ele>
        <time>2024-01-25T10:26:24Z</time>
      </trkpt>
      <trkpt lat="48.59848" lon="7.203">
        <ele>491.2</ele>
        <time>2024-01-25T10:26:30Z</time>
      </trkpt>
      <trkpt lat="48.59839" lon="7.20326">
        <ele>489.8</ele>
        <time>2024-01-25T10:26:35Z</time>
      </trkpt>
      <trkpt lat="48.59832" lon="7.20351">
        <ele>488.5</ele>
        <time>2024-01-25T10:26:41Z</time>
      </trkpt>
      <trkpt lat="48.59825" lon="7.20378">
        <ele>487</ele>
        <time>2024-01-25T10:26:46Z</time>
      </trkpt>
      <trkpt lat="48.59815" lon="7.20403">
        <ele>485.5</ele>
        <time>2024-01-25T10:26:51Z</time>
      </trkpt>
      <trkpt lat="48.59807" lon="7.20429">
        <ele>484.2</ele>
        <time>2024-01-25T10:26:57Z</time>
      </trkpt>
      <trkpt lat="48.598" lon="7.20455">
        <ele>482.9</ele>
        <time>2024-01-25T10:27:10Z</time>
      </trkpt>
      <trkpt lat="48.59793" lon="7.20481">
        <ele>481.6</ele>
        <time>2024-01-25T10:27:16Z</time>
      </trkpt>
      <trkpt lat="48.59783" lon="7.20509">
        <ele>480.2</ele>
        <time>2024-01-25T10:27:22Z</time>
      </trkpt>
      <trkpt lat="48.59767" lon="7.2053">
        <ele>478.8</ele>
        <time>2024-01-25T10:27:27Z</time>
      </trkpt>
      <trkpt lat="48.59752" lon="7.20553">
        <ele>477.6</ele>
        <time>2024-01-25T10:27:32Z</time>
      </trkpt>
      <trkpt lat="48.59736" lon="7.20571">
        <ele>476.6</ele>
        <time>2024-01-25T10:27:37Z</time>
      </trkpt>
      <trkpt lat="48.59721" lon="7.2059">
        <ele>475.7</ele>
        <time>2024-01-25T10:27:43Z</time>
      </trkpt>
      <trkpt lat="48.5971" lon="7.20613">
        <ele>475.8</ele>
        <time>2024-01-25T10:27:49Z</time>
      </trkpt>
      <trkpt lat="48.59698" lon="7.20632">
        <ele>476.3</ele>
        <time>2024-01-25T10:27:55Z</time>
      </trkpt>
      <trkpt lat="48.5968" lon="7.20645">
        <ele>476.6</ele>
        <time>2024-01-25T10:28:02Z</time>
      </trkpt>
      <trkpt lat="48.59661" lon="7.2065">
        <ele>476.7</ele>
        <time>2024-01-25T10:28:09Z</time>
      </trkpt>
      <trkpt lat="48.59642" lon="7.20655">
        <ele>476.9</ele>
        <time>2024-01-25T10:28:16Z</time>
      </trkpt>
      <trkpt lat="48.59624" lon="7.20658">
        <ele>478.1</ele>
        <time>2024-01-25T10:28:24Z</time>
      </trkpt>
      <trkpt lat="48.59604" lon="7.20655">
        <ele>480.3</ele>
        <time>2024-01-25T10:28:34Z</time>
      </trkpt>
      <trkpt lat="48.59586" lon="7.20649">
        <ele>482.6</ele>
        <time>2024-01-25T10:28:45Z</time>
      </trkpt>
      <trkpt lat="48.59568" lon="7.20659">
        <ele>485.2</ele>
        <time>2024-01-25T10:28:56Z</time>
      </trkpt>
      <trkpt lat="48.59551" lon="7.20681">
        <ele>487.9</ele>
        <time>2024-01-25T10:29:07Z</time>
      </trkpt>
      <trkpt lat="48.59533" lon="7.20692">
        <ele>490.4</ele>
        <time>2024-01-25T10:29:17Z</time>
      </trkpt>
      <trkpt lat="48.59514" lon="7.207">
        <ele>493</ele>
        <time>2024-01-25T10:29:26Z</time>
      </trkpt>
      <trkpt lat="48.59495" lon="7.20703">
        <ele>495.2</ele>
        <time>2024-01-25T10:29:34Z</time>
      </trkpt>
      <trkpt lat="48.59477" lon="7.20705">
        <ele>497.4</ele>
        <time>2024-01-25T10:29:44Z</time>
      </trkpt>
      <trkpt lat="48.59458" lon="7.20706">
        <ele>499.6</ele>
        <time>2024-01-25T10:29:53Z</time>
      </trkpt>
      <trkpt lat="48.59439" lon="7.20704">
        <ele>501.5</ele>
        <time>2024-01-25T10:30:01Z</time>
      </trkpt>
      <trkpt lat="48.5942" lon="7.20706">
        <ele>503.3</ele>
        <time>2024-01-25T10:30:10Z</time>
      </trkpt>
      <trkpt lat="48.59401" lon="7.20703">
        <ele>504.8</ele>
        <time>2024-01-25T10:30:20Z</time>
      </trkpt>
      <trkpt lat="48.59383" lon="7.20712">
        <ele>506.4</ele>
        <time>2024-01-25T10:30:32Z</time>
      </trkpt>
      <trkpt lat="48.59368" lon="7.20728">
        <ele>508.1</ele>
        <time>2024-01-25T10:30:43Z</time>
      </trkpt>
      <trkpt lat="48.59353" lon="7.20742">
        <ele>509.7</ele>
        <time>2024-01-25T10:30:51Z</time>
      </trkpt>
      <trkpt lat="48.59339" lon="7.2076">
        <ele>511</ele>
        <time>2024-01-25T10:31:01Z</time>
      </trkpt>
      <trkpt lat="48.59328" lon="7.20784">
        <ele>512.2</ele>
        <time>2024-01-25T10:31:10Z</time>
      </trkpt>
      <trkpt lat="48.59316" lon="7.20807">
        <ele>513.5</ele>
        <time>2024-01-25T10:31:18Z</time>
      </trkpt>
      <trkpt lat="48.593" lon="7.20822">
        <ele>515.1</ele>
        <time>2024-01-25T10:31:27Z</time>
      </trkpt>
      <trkpt lat="48.59285" lon="7.2084">
        <ele>516.8</ele>
        <time>2024-01-25T10:31:36Z</time>
      </trkpt>
      <trkpt lat="48.59269" lon="7.20854">
        <ele>519.3</ele>
        <time>2024-01-25T10:31:44Z</time>
      </trkpt>
      <trkpt lat="48.59256" lon="7.20877">
        <ele>522.1</ele>
        <time>2024-01-25T10:31:52Z</time>
      </trkpt>
      <trkpt lat="48.5924" lon="7.2089">
        <ele>524.8</ele>
        <time>2024-01-25T10:31:59Z</time>
      </trkpt>
      <trkpt lat="48.59226" lon="7.20908">
        <ele>527.6</ele>
        <time>2024-01-25T10:32:06Z</time>
      </trkpt>
      <trkpt lat="48.59212" lon="7.2093">
        <ele>530.4</ele>
        <time>2024-01-25T10:32:13Z</time>
      </trkpt>
      <trkpt lat="48.59196" lon="7.2095">
        <ele>533.3</ele>
        <time>2024-01-25T10:32:21Z</time>
      </trkpt>
      <trkpt lat="48.59185" lon="7.20973">
        <ele>536</ele>
        <time>2024-01-25T10:32:30Z</time>
      </trkpt>
      <trkpt lat="48.59171" lon="7.20991">
        <ele>538.6</ele>
        <time>2024-01-25T10:32:39Z</time>
      </trkpt>
      <trkpt lat="48.59157" lon="7.21011">
        <ele>541.3</ele>
        <time>2024-01-25T10:32:48Z</time>
      </trkpt>
      <trkpt lat="48.59141" lon="7.21026">
        <ele>544.2</ele>
        <time>2024-01-25T10:32:54Z</time>
      </trkpt>
      <trkpt lat="48.59126" lon="7.21045">
        <ele>547</ele>
        <time>2024-01-25T10:33:01Z</time>
      </trkpt>
      <trkpt lat="48.59112" lon="7.21067">
        <ele>550</ele>
        <time>2024-01-25T10:33:10Z</time>
      </trkpt>
      <trkpt lat="48.591" lon="7.21088">
        <ele>552.8</ele>
        <time>2024-01-25T10:33:17Z</time>
      </trkpt>
      <trkpt lat="48.59088" lon="7.21109">
        <ele>555.6</ele>
        <time>2024-01-25T10:33:26Z</time>
      </trkpt>
      <trkpt lat="48.59076" lon="7.2113">
        <ele>558.1</ele>
        <time>2024-01-25T10:33:33Z</time>
      </trkpt>
      <trkpt lat="48.59064" lon="7.21151">
        <ele>560.4</ele>
        <time>2024-01-25T10:33:40Z</time>
      </trkpt>
      <trkpt lat="48.59052" lon="7.21173">
        <ele>563.2</ele>
        <time>2024-01-25T10:33:49Z</time>
      </trkpt>
      <trkpt lat="48.59042" lon="7.21196">
        <ele>566.1</ele>
        <time>2024-01-25T10:33:57Z</time>
      </trkpt>
      <trkpt lat="48.59033" lon="7.21222">
        <ele>569.3</ele>
        <time>2024-01-25T10:34:08Z</time>
      </trkpt>
      <trkpt lat="48.5903" lon="7.21252">
        <ele>572.4</ele>
        <time>2024-01-25T10:34:19Z</time>
      </trkpt>
      <trkpt lat="48.59023" lon="7.21281">
        <ele>575.5</ele>
        <time>2024-01-25T10:34:28Z</time>
      </trkpt>
      <trkpt lat="48.59017" lon="7.2131">
        <ele>578.1</ele>
        <time>2024-01-25T10:34:34Z</time>
      </trkpt>
      <trkpt lat="48.59013" lon="7.21341">
        <ele>581.8</ele>
        <time>2024-01-25T10:34:41Z</time>
      </trkpt>
      <trkpt lat="48.59014" lon="7.21369">
        <ele>582.9</ele>
        <time>2024-01-25T10:34:48Z</time>
      </trkpt>
      <trkpt lat="48.59015" lon="7.21397">
        <ele>584</ele>
        <time>2024-01-25T10:34:54Z</time>
      </trkpt>
      <trkpt lat="48.59016" lon="7.21425">
        <ele>585.9</ele>
        <time>2024-01-25T10:35:05Z</time>
      </trkpt>
      <trkpt lat="48.59018" lon="7.21454">
        <ele>587.7</ele>
        <time>2024-01-25T10:35:15Z</time>
      </trkpt>
      <trkpt lat="48.59023" lon="7.21482">
        <ele>589.5</ele>
        <time>2024-01-25T10:35:25Z</time>
      </trkpt>
      <trkpt lat="48.59033" lon="7.2151">
        <ele>591.6</ele>
        <time>2024-01-25T10:35:36Z</time>
      </trkpt>
      <trkpt lat="48.59035" lon="7.21541">
        <ele>593.9</ele>
        <time>2024-01-25T10:35:42Z</time>
      </trkpt>
      <trkpt lat="48.59037" lon="7.21571">
        <ele>595.7</ele>
        <time>2024-01-25T10:35:50Z</time>
      </trkpt>
      <trkpt lat="48.59039" lon="7.21598">
        <ele>597.3</ele>
        <time>2024-01-25T10:35:59Z</time>
      </trkpt>
      <trkpt lat="48.59048" lon="7.21625">
        <ele>599</ele>
        <time>2024-01-25T10:36:09Z</time>
      </trkpt>
      <trkpt lat="48.59056" lon="7.21653">
        <ele>600.8</ele>
        <time>2024-01-25T10:36:17Z</time>
      </trkpt>
      <trkpt lat="48.59058" lon="7.21682">
        <ele>602.6</ele>
        <time>2024-01-25T10:36:26Z</time>
      </trkpt>
      <trkpt lat="48.59064" lon="7.2171">
        <ele>604.5</ele>
        <time>2024-01-25T10:36:35Z</time>
      </trkpt>
      <trkpt lat="48.5907" lon="7.21738">
        <ele>606.5</ele>
        <time>2024-01-25T10:36:42Z</time>
      </trkpt>
      <trkpt lat="48.59076" lon="7.21766">
        <ele>608.7</ele>
        <time>2024-01-25T10:36:52Z</time>
      </trkpt>
      <trkpt lat="48.59078" lon="7.21793">
        <ele>610.7</ele>
        <time>2024-01-25T10:37:02Z</time>
      </trkpt>
      <trkpt lat="48.5908" lon="7.21821">
        <ele>612.8</ele>
        <time>2024-01-25T10:37:13Z</time>
      </trkpt>
      <trkpt lat="48.59078" lon="7.21853">
        <ele>615.1</ele>
        <time>2024-01-25T10:37:22Z</time>
      </trkpt>
      <trkpt lat="48.59077" lon="7.21881">
        <ele>617.3</ele>
        <time>2024-01-25T10:37:29Z</time>
      </trkpt>
      <trkpt lat="48.59071" lon="7.21912">
        <ele>619.8</ele>
        <time>2024-01-25T10:37:37Z</time>
      </trkpt>
      <trkpt lat="48.59065" lon="7.2194">
        <ele>621.7</ele>
        <time>2024-01-25T10:37:44Z</time>
      </trkpt>
      <trkpt lat="48.59057" lon="7.21966">
        <ele>623.5</ele>
        <time>2024-01-25T10:37:52Z</time>
      </trkpt>
      <trkpt lat="48.59049" lon="7.21992">
        <ele>625.5</ele>
        <time>2024-01-25T10:38:01Z</time>
      </trkpt>
      <trkpt lat="48.59046" lon="7.22022">
        <ele>627.6</ele>
        <time>2024-01-25T10:38:10Z</time>
      </trkpt>
      <trkpt lat="48.59043" lon="7.22049">
        <ele>629.4</ele>
        <time>2024-01-25T10:38:20Z</time>
      </trkpt>
      <trkpt lat="48.59037" lon="7.22077">
        <ele>631</ele>
        <time>2024-01-25T10:38:28Z</time>
      </trkpt>
      <trkpt lat="48.59034" lon="7.22084">
        <ele>631.5</ele>
        <time>2024-01-25T10:38:31Z</time>
      </trkpt>
      <trkpt lat="48.59016" lon="7.22092">
        <ele>633</ele>
        <time>2024-01-25T10:38:43Z</time>
      </trkpt>
      <trkpt lat="48.58996" lon="7.22085">
        <ele>635.1</ele>
        <time>2024-01-25T10:38:52Z</time>
      </trkpt>
      <trkpt lat="48.58979" lon="7.22074">
        <ele>637.5</ele>
        <time>2024-01-25T10:39:02Z</time>
      </trkpt>
      <trkpt lat="48.58965" lon="7.22056">
        <ele>639.9</ele>
        <time>2024-01-25T10:39:08Z</time>
      </trkpt>
      <trkpt lat="48.58954" lon="7.22033">
        <ele>642.1</ele>
        <time>2024-01-25T10:39:15Z</time>
      </trkpt>
      <trkpt lat="48.58941" lon="7.22011">
        <ele>644.2</ele>
        <time>2024-01-25T10:39:25Z</time>
      </trkpt>
      <trkpt lat="48.58931" lon="7.21989">
        <ele>646.3</ele>
        <time>2024-01-25T10:39:33Z</time>
      </trkpt>
      <trkpt lat="48.58917" lon="7.21968">
        <ele>648.4</ele>
        <time>2024-01-25T10:39:42Z</time>
      </trkpt>
      <trkpt lat="48.58905" lon="7.21944">
        <ele>651.1</ele>
        <time>2024-01-25T10:39:52Z</time>
      </trkpt>
      <trkpt lat="48.58894" lon="7.21921">
        <ele>654</ele>
        <time>2024-01-25T10:40:01Z</time>
      </trkpt>
      <trkpt lat="48.58882" lon="7.21898">
        <ele>656.8</ele>
        <time>2024-01-25T10:40:11Z</time>
      </trkpt>
      <trkpt lat="48.58867" lon="7.21879">
        <ele>659.4</ele>
        <time>2024-01-25T10:40:20Z</time>
      </trkpt>
      <trkpt lat="48.58855" lon="7.21858">
        <ele>662</ele>
        <time>2024-01-25T10:40:30Z</time>
      </trkpt>
      <trkpt lat="48.58842" lon="7.21835">
        <ele>665.1</ele>
        <time>2024-01-25T10:40:42Z</time>
      </trkpt>
      <trkpt lat="48.58824" lon="7.21822">
        <ele>668</ele>
        <time>2024-01-25T10:40:51Z</time>
      </trkpt>
      <trkpt lat="48.58806" lon="7.21817">
        <ele>670.7</ele>
        <time>2024-01-25T10:40:59Z</time>
      </trkpt>
      <trkpt lat="48.58787" lon="7.21821">
        <ele>673.2</ele>
        <time>2024-01-25T10:41:08Z</time>
      </trkpt>
      <trkpt lat="48.5877" lon="7.21834">
        <ele>675.9</ele>
        <time>2024-01-25T10:41:17Z</time>
      </trkpt>
      <trkpt lat="48.58755" lon="7.2185">
        <ele>678.7</ele>
        <time>2024-01-25T10:41:26Z</time>
      </trkpt>
      <trkpt lat="48.5874" lon="7.2187">
        <ele>681.2</ele>
        <time>2024-01-25T10:41:37Z</time>
      </trkpt>
      <trkpt lat="48.58728" lon="7.21895">
        <ele>684.1</ele>
        <time>2024-01-25T10:41:47Z</time>
      </trkpt>
      <trkpt lat="48.58719" lon="7.21922">
        <ele>686.9</ele>
        <time>2024-01-25T10:41:55Z</time>
      </trkpt>
      <trkpt lat="48.58714" lon="7.21949">
        <ele>689.5</ele>
        <time>2024-01-25T10:42:06Z</time>
      </trkpt>
      <trkpt lat="48.58712" lon="7.21979">
        <ele>692.3</ele>
        <time>2024-01-25T10:42:17Z</time>
      </trkpt>
      <trkpt lat="48.58709" lon="7.22007">
        <ele>695</ele>
        <time>2024-01-25T10:42:26Z</time>
      </trkpt>
      <trkpt lat="48.58706" lon="7.22036">
        <ele>697.4</ele>
        <time>2024-01-25T10:42:34Z</time>
      </trkpt>
      <trkpt lat="48.58701" lon="7.22067">
        <ele>700.6</ele>
        <time>2024-01-25T10:42:45Z</time>
      </trkpt>
      <trkpt lat="48.58698" lon="7.22094">
        <ele>701.8</ele>
        <time>2024-01-25T10:42:54Z</time>
      </trkpt>
      <trkpt lat="48.58695" lon="7.22123">
        <ele>702.8</ele>
        <time>2024-01-25T10:43:06Z</time>
      </trkpt>
      <trkpt lat="48.58693" lon="7.2215">
        <ele>703.9</ele>
        <time>2024-01-25T10:43:15Z</time>
      </trkpt>
      <trkpt lat="48.58689" lon="7.22179">
        <ele>705.4</ele>
        <time>2024-01-25T10:43:25Z</time>
      </trkpt>
      <trkpt lat="48.58683" lon="7.22205">
        <ele>706.8</ele>
        <time>2024-01-25T10:43:34Z</time>
      </trkpt>
      <trkpt lat="48.58678" lon="7.22233">
        <ele>708.3</ele>
        <time>2024-01-25T10:43:42Z</time>
      </trkpt>
      <trkpt lat="48.58675" lon="7.2226">
        <ele>709.9</ele>
        <time>2024-01-25T10:43:51Z</time>
      </trkpt>
      <trkpt lat="48.5867" lon="7.22288">
        <ele>711.6</ele>
        <time>2024-01-25T10:43:59Z</time>
      </trkpt>
      <trkpt lat="48.58662" lon="7.22316">
        <ele>713.4</ele>
        <time>2024-01-25T10:44:07Z</time>
      </trkpt>
      <trkpt lat="48.5865" lon="7.2234">
        <ele>715.1</ele>
        <time>2024-01-25T10:44:16Z</time>
      </trkpt>
      <trkpt lat="48.58638" lon="7.22361">
        <ele>716.8</ele>
        <time>2024-01-25T10:44:24Z</time>
      </trkpt>
      <trkpt lat="48.58626" lon="7.22382">
        <ele>718.8</ele>
        <time>2024-01-25T10:44:33Z</time>
      </trkpt>
      <trkpt lat="48.58625" lon="7.22388">
        <ele>719.3</ele>
        <time>2024-01-25T10:44:36Z</time>
      </trkpt>
      <trkpt lat="48.58612" lon="7.22408">
        <ele>720.6</ele>
        <time>2024-01-25T10:44:43Z</time>
      </trkpt>
      <trkpt lat="48.58597" lon="7.22424">
        <ele>721</ele>
        <time>2024-01-25T10:44:49Z</time>
      </trkpt>
      <trkpt lat="48.58582" lon="7.22446">
        <ele>721.8</ele>
        <time>2024-01-25T10:44:57Z</time>
      </trkpt>
      <trkpt lat="48.58573" lon="7.22469">
        <ele>724.6</ele>
        <time>2024-01-25T10:45:05Z</time>
      </trkpt>
      <trkpt lat="48.58565" lon="7.22495">
        <ele>727.9</ele>
        <time>2024-01-25T10:45:15Z</time>
      </trkpt>
      <trkpt lat="48.58555" lon="7.22522">
        <ele>730.4</ele>
        <time>2024-01-25T10:45:25Z</time>
      </trkpt>
      <trkpt lat="48.58547" lon="7.22549">
        <ele>733.1</ele>
        <time>2024-01-25T10:45:35Z</time>
      </trkpt>
      <trkpt lat="48.58545" lon="7.22579">
        <ele>735.8</ele>
        <time>2024-01-25T10:45:44Z</time>
      </trkpt>
      <trkpt lat="48.58541" lon="7.22608">
        <ele>738.1</ele>
        <time>2024-01-25T10:45:53Z</time>
      </trkpt>
      <trkpt lat="48.58536" lon="7.22637">
        <ele>740.4</ele>
        <time>2024-01-25T10:46:03Z</time>
      </trkpt>
      <trkpt lat="48.58527" lon="7.22664">
        <ele>742.5</ele>
        <time>2024-01-25T10:46:14Z</time>
      </trkpt>
      <trkpt lat="48.58517" lon="7.2269">
        <ele>744.6</ele>
        <time>2024-01-25T10:46:22Z</time>
      </trkpt>
      <trkpt lat="48.58508" lon="7.22715">
        <ele>747.3</ele>
        <time>2024-01-25T10:46:33Z</time>
      </trkpt>
      <trkpt lat="48.58502" lon="7.22743">
        <ele>750.2</ele>
        <time>2024-01-25T10:46:43Z</time>
      </trkpt>
      <trkpt lat="48.58493" lon="7.2277">
        <ele>753</ele>
        <time>2024-01-25T10:46:51Z</time>
      </trkpt>
      <trkpt lat="48.58488" lon="7.22797">
        <ele>756</ele>
        <time>2024-01-25T10:47:00Z</time>
      </trkpt>
      <trkpt lat="48.58487" lon="7.22825">
        <ele>758.9</ele>
        <time>2024-01-25T10:47:09Z</time>
      </trkpt>
      <trkpt lat="48.58482" lon="7.22852">
        <ele>761.6</ele>
        <time>2024-01-25T10:47:17Z</time>
      </trkpt>
      <trkpt lat="48.58478" lon="7.2288">
        <ele>764.9</ele>
        <time>2024-01-25T10:47:27Z</time>
      </trkpt>
      <trkpt lat="48.58471" lon="7.2291">
        <ele>768.2</ele>
        <time>2024-01-25T10:47:36Z</time>
      </trkpt>
      <trkpt lat="48.58463" lon="7.22937">
        <ele>770</ele>
        <time>2024-01-25T10:47:43Z</time>
      </trkpt>
      <trkpt lat="48.58456" lon="7.22963">
        <ele>772.1</ele>
        <time>2024-01-25T10:47:49Z</time>
      </trkpt>
      <trkpt lat="48.58454" lon="7.2299">
        <ele>774.4</ele>
        <time>2024-01-25T10:47:58Z</time>
      </trkpt>
      <trkpt lat="48.58453" lon="7.23018">
        <ele>776.7</ele>
        <time>2024-01-25T10:48:07Z</time>
      </trkpt>
      <trkpt lat="48.58452" lon="7.23048">
        <ele>779.2</ele>
        <time>2024-01-25T10:48:17Z</time>
      </trkpt>
      <trkpt lat="48.58451" lon="7.23076">
        <ele>781.8</ele>
        <time>2024-01-25T10:48:27Z</time>
      </trkpt>
      <trkpt lat="48.5845" lon="7.23105">
        <ele>784.4</ele>
        <time>2024-01-25T10:48:36Z</time>
      </trkpt>
      <trkpt lat="48.58453" lon="7.23134">
        <ele>786.7</ele>
        <time>2024-01-25T10:48:45Z</time>
      </trkpt>
      <trkpt lat="48.58456" lon="7.23162">
        <ele>788.8</ele>
        <time>2024-01-25T10:48:54Z</time>
      </trkpt>
      <trkpt lat="48.58459" lon="7.23191">
        <ele>791.5</ele>
        <time>2024-01-25T10:49:02Z</time>
      </trkpt>
      <trkpt lat="48.58462" lon="7.23221">
        <ele>794.1</ele>
        <time>2024-01-25T10:49:10Z</time>
      </trkpt>
      <trkpt lat="48.58465" lon="7.23248">
        <ele>796.4</ele>
        <time>2024-01-25T10:49:17Z</time>
      </trkpt>
      <trkpt lat="48.58469" lon="7.23278">
        <ele>798.8</ele>
        <time>2024-01-25T10:49:25Z</time>
      </trkpt>
      <trkpt lat="48.58475" lon="7.23303">
        <ele>801.2</ele>
        <time>2024-01-25T10:49:33Z</time>
      </trkpt>
      <trkpt lat="48.58485" lon="7.23327">
        <ele>803.8</ele>
        <time>2024-01-25T10:49:42Z</time>
      </trkpt>
      <trkpt lat="48.58495" lon="7.23351">
        <ele>806.6</ele>
        <time>2024-01-25T10:49:52Z</time>
      </trkpt>
      <trkpt lat="48.58509" lon="7.23369">
        <ele>809.5</ele>
        <time>2024-01-25T10:50:01Z</time>
      </trkpt>
      <trkpt lat="48.58521" lon="7.23392">
        <ele>812.9</ele>
        <time>2024-01-25T10:50:10Z</time>
      </trkpt>
      <trkpt lat="48.58534" lon="7.23411">
        <ele>815.7</ele>
        <time>2024-01-25T10:50:21Z</time>
      </trkpt>
      <trkpt lat="48.5855" lon="7.23425">
        <ele>817.8</ele>
        <time>2024-01-25T10:50:32Z</time>
      </trkpt>
      <trkpt lat="48.5857" lon="7.23435">
        <ele>819</ele>
        <time>2024-01-25T10:50:43Z</time>
      </trkpt>
      <trkpt lat="48.58583" lon="7.23453">
        <ele>819.9</ele>
        <time>2024-01-25T10:50:51Z</time>
      </trkpt>
      <trkpt lat="48.58601" lon="7.23465">
        <ele>821.3</ele>
        <time>2024-01-25T10:51:00Z</time>
      </trkpt>
      <trkpt lat="48.58618" lon="7.23477">
        <ele>822.7</ele>
        <time>2024-01-25T10:51:09Z</time>
      </trkpt>
      <trkpt lat="48.58631" lon="7.23499">
        <ele>824.4</ele>
        <time>2024-01-25T10:51:17Z</time>
      </trkpt>
      <trkpt lat="48.58641" lon="7.23525">
        <ele>826.5</ele>
        <time>2024-01-25T10:51:24Z</time>
      </trkpt>
      <trkpt lat="48.58648" lon="7.23553">
        <ele>828.4</ele>
        <time>2024-01-25T10:51:32Z</time>
      </trkpt>
      <trkpt lat="48.58651" lon="7.23587">
        <ele>830.3</ele>
        <time>2024-01-25T10:51:37Z</time>
      </trkpt>
      <trkpt lat="48.58665" lon="7.23606">
        <ele>831.9</ele>
        <time>2024-01-25T10:51:46Z</time>
      </trkpt>
      <trkpt lat="48.58677" lon="7.23632">
        <ele>833.8</ele>
        <time>2024-01-25T10:51:55Z</time>
      </trkpt>
      <trkpt lat="48.58682" lon="7.23661">
        <ele>835.6</ele>
        <time>2024-01-25T10:52:03Z</time>
      </trkpt>
      <trkpt lat="48.58692" lon="7.23685">
        <ele>837.1</ele>
        <time>2024-01-25T10:52:12Z</time>
      </trkpt>
      <trkpt lat="48.58702" lon="7.23711">
        <ele>838.4</ele>
        <time>2024-01-25T10:52:22Z</time>
      </trkpt>
      <trkpt lat="48.5871" lon="7.23739">
        <ele>839.7</ele>
        <time>2024-01-25T10:52:30Z</time>
      </trkpt>
      <trkpt lat="48.58716" lon="7.23768">
        <ele>840.8</ele>
        <time>2024-01-25T10:52:37Z</time>
      </trkpt>
      <trkpt lat="48.58729" lon="7.23791">
        <ele>842.1</ele>
        <time>2024-01-25T10:52:45Z</time>
      </trkpt>
      <trkpt lat="48.58738" lon="7.23817">
        <ele>843.6</ele>
        <time>2024-01-25T10:52:53Z</time>
      </trkpt>
      <trkpt lat="48.5875" lon="7.2384">
        <ele>844.9</ele>
        <time>2024-01-25T10:53:02Z</time>
      </trkpt>
      <trkpt lat="48.58764" lon="7.2386">
        <ele>846</ele>
        <time>2024-01-25T10:53:11Z</time>
      </trkpt>
      <trkpt lat="48.58777" lon="7.23882">
        <ele>847.3</ele>
        <time>2024-01-25T10:53:21Z</time>
      </trkpt>
      <trkpt lat="48.58791" lon="7.23902">
        <ele>848.4</ele>
        <time>2024-01-25T10:53:30Z</time>
      </trkpt>
      <trkpt lat="48.58807" lon="7.23918">
        <ele>849.3</ele>
        <time>2024-01-25T10:53:40Z</time>
      </trkpt>
      <trkpt lat="48.58825" lon="7.23929">
        <ele>849.8</ele>
        <time>2024-01-25T10:53:49Z</time>
      </trkpt>
      <trkpt lat="48.58842" lon="7.23943">
        <ele>850.2</ele>
        <time>2024-01-25T10:53:57Z</time>
      </trkpt>
      <trkpt lat="48.58856" lon="7.2396">
        <ele>850.8</ele>
        <time>2024-01-25T10:54:04Z</time>
      </trkpt>
      <trkpt lat="48.58874" lon="7.23976">
        <ele>851.4</ele>
        <time>2024-01-25T10:54:12Z</time>
      </trkpt>
      <trkpt lat="48.58894" lon="7.23986">
        <ele>851.7</ele>
        <time>2024-01-25T10:54:19Z</time>
      </trkpt>
      <trkpt lat="48.58909" lon="7.24006">
        <ele>851.8</ele>
        <time>2024-01-25T10:54:27Z</time>
      </trkpt>
      <trkpt lat="48.58918" lon="7.24009">
        <ele>851.9</ele>
        <time>2024-01-25T10:54:34Z</time>
      </trkpt>
      <trkpt lat="48.5892" lon="7.24008">
        <ele>851.9</ele>
        <time>2024-01-25T10:54:40Z</time>
      </trkpt>
      <trkpt lat="48.5892" lon="7.24008">
        <ele>851.9</ele>
        <time>2024-01-25T10:54:42Z</time>
      </trkpt>
      <trkpt lat="48.58922" lon="7.24013">
        <ele>851.9</ele>
        <time>2024-01-25T10:55:13Z</time>
      </trkpt>
      <trkpt lat="48.58912" lon="7.23995">
        <ele>851.8</ele>
        <time>2024-01-25T10:55:25Z</time>
      </trkpt>
      <trkpt lat="48.589" lon="7.23974">
        <ele>851.7</ele>
        <time>2024-01-25T10:55:36Z</time>
      </trkpt>
      <trkpt lat="48.58891" lon="7.23951">
        <ele>851.4</ele>
        <time>2024-01-25T10:55:52Z</time>
      </trkpt>
      <trkpt lat="48.58875" lon="7.23933">
        <ele>850.8</ele>
        <time>2024-01-25T10:56:03Z</time>
      </trkpt>
      <trkpt lat="48.58861" lon="7.23913">
        <ele>850.2</ele>
        <time>2024-01-25T10:56:12Z</time>
      </trkpt>
      <trkpt lat="48.58847" lon="7.23894">
        <ele>849.7</ele>
        <time>2024-01-25T10:56:20Z</time>
      </trkpt>
      <trkpt lat="48.58836" lon="7.23871">
        <ele>849.2</ele>
        <time>2024-01-25T10:56:30Z</time>
      </trkpt>
      <trkpt lat="48.5883" lon="7.23842">
        <ele>848.2</ele>
        <time>2024-01-25T10:56:40Z</time>
      </trkpt>
      <trkpt lat="48.58821" lon="7.23818">
        <ele>847.1</ele>
        <time>2024-01-25T10:56:50Z</time>
      </trkpt>
      <trkpt lat="48.58819" lon="7.23816">
        <ele>846.9</ele>
        <time>2024-01-25T10:56:52Z</time>
      </trkpt>
      <trkpt lat="48.5882" lon="7.23814">
        <ele>846.8</ele>
        <time>2024-01-25T10:56:57Z</time>
      </trkpt>
      <trkpt lat="48.58812" lon="7.23809">
        <ele>846.2</ele>
        <time>2024-01-25T10:57:13Z</time>
      </trkpt>
      <trkpt lat="48.58809" lon="7.23805">
        <ele>845.9</ele>
        <time>2024-01-25T10:57:17Z</time>
      </trkpt>
      <trkpt lat="48.58798" lon="7.2378">
        <ele>844.7</ele>
        <time>2024-01-25T10:57:25Z</time>
      </trkpt>
      <trkpt lat="48.58789" lon="7.23765">
        <ele>843.8</ele>
        <time>2024-01-25T10:57:31Z</time>
      </trkpt>
      <trkpt lat="48.58778" lon="7.23738">
        <ele>842.1</ele>
        <time>2024-01-25T10:57:40Z</time>
      </trkpt>
      <trkpt lat="48.58766" lon="7.23716">
        <ele>840.8</ele>
        <time>2024-01-25T10:57:47Z</time>
      </trkpt>
      <trkpt lat="48.58756" lon="7.23691">
        <ele>839.7</ele>
        <time>2024-01-25T10:57:54Z</time>
      </trkpt>
      <trkpt lat="48.58747" lon="7.23668">
        <ele>838.5</ele>
        <time>2024-01-25T10:58:01Z</time>
      </trkpt>
      <trkpt lat="48.58734" lon="7.23644">
        <ele>837</ele>
        <time>2024-01-25T10:58:07Z</time>
      </trkpt>
      <trkpt lat="48.58723" lon="7.23618">
        <ele>835.3</ele>
        <time>2024-01-25T10:58:14Z</time>
      </trkpt>
      <trkpt lat="48.58713" lon="7.23594">
        <ele>833.4</ele>
        <time>2024-01-25T10:58:21Z</time>
      </trkpt>
      <trkpt lat="48.58702" lon="7.23572">
        <ele>831.7</ele>
        <time>2024-01-25T10:58:30Z</time>
      </trkpt>
      <trkpt lat="48.58692" lon="7.23547">
        <ele>830</ele>
        <time>2024-01-25T10:58:37Z</time>
      </trkpt>
      <trkpt lat="48.5868" lon="7.23526">
        <ele>828.3</ele>
        <time>2024-01-25T10:58:45Z</time>
      </trkpt>
      <trkpt lat="48.58676" lon="7.23505">
        <ele>829.2</ele>
        <time>2024-01-25T10:58:52Z</time>
      </trkpt>
      <trkpt lat="48.58676" lon="7.23476">
        <ele>831.2</ele>
        <time>2024-01-25T10:59:01Z</time>
      </trkpt>
      <trkpt lat="48.58662" lon="7.23454">
        <ele>831.8</ele>
        <time>2024-01-25T10:59:10Z</time>
      </trkpt>
      <trkpt lat="48.58648" lon="7.23437">
        <ele>830.8</ele>
        <time>2024-01-25T10:59:18Z</time>
      </trkpt>
      <trkpt lat="48.58643" lon="7.2342">
        <ele>830.9</ele>
        <time>2024-01-25T10:59:24Z</time>
      </trkpt>
      <trkpt lat="48.58649" lon="7.23392">
        <ele>832.2</ele>
        <time>2024-01-25T10:59:30Z</time>
      </trkpt>
      <trkpt lat="48.58652" lon="7.23364">
        <ele>832.9</ele>
        <time>2024-01-25T10:59:38Z</time>
      </trkpt>
      <trkpt lat="48.58648" lon="7.23338">
        <ele>834.2</ele>
        <time>2024-01-25T10:59:46Z</time>
      </trkpt>
      <trkpt lat="48.58647" lon="7.23311">
        <ele>835.5</ele>
        <time>2024-01-25T10:59:54Z</time>
      </trkpt>
      <trkpt lat="48.58647" lon="7.23281">
        <ele>837</ele>
        <time>2024-01-25T11:00:02Z</time>
      </trkpt>
      <trkpt lat="48.58646" lon="7.23251">
        <ele>838.2</ele>
        <time>2024-01-25T11:00:10Z</time>
      </trkpt>
      <trkpt lat="48.58645" lon="7.23222">
        <ele>839.1</ele>
        <time>2024-01-25T11:00:17Z</time>
      </trkpt>
      <trkpt lat="48.5865" lon="7.23193">
        <ele>840.4</ele>
        <time>2024-01-25T11:00:26Z</time>
      </trkpt>
      <trkpt lat="48.58654" lon="7.23164">
        <ele>841.2</ele>
        <time>2024-01-25T11:00:33Z</time>
      </trkpt>
      <trkpt lat="48.58659" lon="7.23134">
        <ele>841.9</ele>
        <time>2024-01-25T11:00:42Z</time>
      </trkpt>
      <trkpt lat="48.58667" lon="7.23108">
        <ele>842.5</ele>
        <time>2024-01-25T11:00:49Z</time>
      </trkpt>
      <trkpt lat="48.58676" lon="7.23084">
        <ele>842.7</ele>
        <time>2024-01-25T11:00:55Z</time>
      </trkpt>
      <trkpt lat="48.58674" lon="7.23057">
        <ele>842.3</ele>
        <time>2024-01-25T11:01:02Z</time>
      </trkpt>
      <trkpt lat="48.58678" lon="7.23027">
        <ele>841.8</ele>
        <time>2024-01-25T11:01:08Z</time>
      </trkpt>
      <trkpt lat="48.58684" lon="7.23002">
        <ele>839.9</ele>
        <time>2024-01-25T11:01:14Z</time>
      </trkpt>
      <trkpt lat="48.58697" lon="7.22977">
        <ele>836.4</ele>
        <time>2024-01-25T11:01:21Z</time>
      </trkpt>
      <trkpt lat="48.58707" lon="7.22954">
        <ele>833.8</ele>
        <time>2024-01-25T11:01:26Z</time>
      </trkpt>
      <trkpt lat="48.58718" lon="7.22929">
        <ele>831</ele>
        <time>2024-01-25T11:01:31Z</time>
      </trkpt>
      <trkpt lat="48.58735" lon="7.2291">
        <ele>827.4</ele>
        <time>2024-01-25T11:01:37Z</time>
      </trkpt>
      <trkpt lat="48.58752" lon="7.22895">
        <ele>823.9</ele>
        <time>2024-01-25T11:01:44Z</time>
      </trkpt>
      <trkpt lat="48.58769" lon="7.22882">
        <ele>820.5</ele>
        <time>2024-01-25T11:01:52Z</time>
      </trkpt>
      <trkpt lat="48.58789" lon="7.22882">
        <ele>818.5</ele>
        <time>2024-01-25T11:01:58Z</time>
      </trkpt>
      <trkpt lat="48.58811" lon="7.22883">
        <ele>816.7</ele>
        <time>2024-01-25T11:02:04Z</time>
      </trkpt>
      <trkpt lat="48.5883" lon="7.22878">
        <ele>816.3</ele>
        <time>2024-01-25T11:02:08Z</time>
      </trkpt>
      <trkpt lat="48.58847" lon="7.22869">
        <ele>816.3</ele>
        <time>2024-01-25T11:02:13Z</time>
      </trkpt>
      <trkpt lat="48.58865" lon="7.22858">
        <ele>816.1</ele>
        <time>2024-01-25T11:02:18Z</time>
      </trkpt>
      <trkpt lat="48.58884" lon="7.22849">
        <ele>816</ele>
        <time>2024-01-25T11:02:25Z</time>
      </trkpt>
      <trkpt lat="48.58902" lon="7.22834">
        <ele>815.6</ele>
        <time>2024-01-25T11:02:32Z</time>
      </trkpt>
      <trkpt lat="48.58918" lon="7.22817">
        <ele>813.6</ele>
        <time>2024-01-25T11:02:39Z</time>
      </trkpt>
      <trkpt lat="48.58938" lon="7.22806">
        <ele>811.4</ele>
        <time>2024-01-25T11:02:46Z</time>
      </trkpt>
      <trkpt lat="48.58957" lon="7.22802">
        <ele>810</ele>
        <time>2024-01-25T11:02:53Z</time>
      </trkpt>
      <trkpt lat="48.58971" lon="7.2282">
        <ele>812.2</ele>
        <time>2024-01-25T11:02:58Z</time>
      </trkpt>
      <trkpt lat="48.58985" lon="7.22842">
        <ele>815.9</ele>
        <time>2024-01-25T11:03:06Z</time>
      </trkpt>
      <trkpt lat="48.58995" lon="7.22854">
        <ele>817.3</ele>
        <time>2024-01-25T11:03:11Z</time>
      </trkpt>
      <trkpt lat="48.59013" lon="7.22858">
        <ele>816.9</ele>
        <time>2024-01-25T11:03:15Z</time>
      </trkpt>
      <trkpt lat="48.59031" lon="7.22862">
        <ele>816.8</ele>
        <time>2024-01-25T11:03:22Z</time>
      </trkpt>
      <trkpt lat="48.59051" lon="7.22865">
        <ele>816.4</ele>
        <time>2024-01-25T11:03:31Z</time>
      </trkpt>
      <trkpt lat="48.59068" lon="7.22877">
        <ele>816.3</ele>
        <time>2024-01-25T11:03:37Z</time>
      </trkpt>
      <trkpt lat="48.59088" lon="7.22885">
        <ele>815.7</ele>
        <time>2024-01-25T11:03:43Z</time>
      </trkpt>
      <trkpt lat="48.59106" lon="7.22888">
        <ele>815.2</ele>
        <time>2024-01-25T11:03:49Z</time>
      </trkpt>
      <trkpt lat="48.59124" lon="7.22887">
        <ele>815</ele>
        <time>2024-01-25T11:03:55Z</time>
      </trkpt>
      <trkpt lat="48.59142" lon="7.22877">
        <ele>814.8</ele>
        <time>2024-01-25T11:04:03Z</time>
      </trkpt>
      <trkpt lat="48.59158" lon="7.22862">
        <ele>814.3</ele>
        <time>2024-01-25T11:04:12Z</time>
      </trkpt>
      <trkpt lat="48.59174" lon="7.22845">
        <ele>814.1</ele>
        <time>2024-01-25T11:04:21Z</time>
      </trkpt>
      <trkpt lat="48.59191" lon="7.22828">
        <ele>813.2</ele>
        <time>2024-01-25T11:04:29Z</time>
      </trkpt>
      <trkpt lat="48.59207" lon="7.22812">
        <ele>811.9</ele>
        <time>2024-01-25T11:04:34Z</time>
      </trkpt>
      <trkpt lat="48.59226" lon="7.22798">
        <ele>810.8</ele>
        <time>2024-01-25T11:04:40Z</time>
      </trkpt>
      <trkpt lat="48.59244" lon="7.22784">
        <ele>810.1</ele>
        <time>2024-01-25T11:04:46Z</time>
      </trkpt>
      <trkpt lat="48.59261" lon="7.2277">
        <ele>810</ele>
        <time>2024-01-25T11:04:54Z</time>
      </trkpt>
      <trkpt lat="48.59277" lon="7.22755">
        <ele>810.5</ele>
        <time>2024-01-25T11:05:03Z</time>
      </trkpt>
      <trkpt lat="48.59294" lon="7.22765">
        <ele>812.6</ele>
        <time>2024-01-25T11:05:11Z</time>
      </trkpt>
      <trkpt lat="48.59313" lon="7.22775">
        <ele>814.5</ele>
        <time>2024-01-25T11:05:22Z</time>
      </trkpt>
      <trkpt lat="48.59331" lon="7.22775">
        <ele>816.6</ele>
        <time>2024-01-25T11:05:29Z</time>
      </trkpt>
      <trkpt lat="48.59351" lon="7.22768">
        <ele>817.7</ele>
        <time>2024-01-25T11:05:36Z</time>
      </trkpt>
      <trkpt lat="48.59368" lon="7.22754">
        <ele>817.1</ele>
        <time>2024-01-25T11:05:42Z</time>
      </trkpt>
      <trkpt lat="48.59387" lon="7.22743">
        <ele>816.3</ele>
        <time>2024-01-25T11:05:48Z</time>
      </trkpt>
      <trkpt lat="48.59405" lon="7.22732">
        <ele>815.2</ele>
        <time>2024-01-25T11:05:53Z</time>
      </trkpt>
      <trkpt lat="48.59424" lon="7.22718">
        <ele>813.6</ele>
        <time>2024-01-25T11:05:59Z</time>
      </trkpt>
      <trkpt lat="48.5944" lon="7.22705">
        <ele>812.5</ele>
        <time>2024-01-25T11:06:05Z</time>
      </trkpt>
      <trkpt lat="48.59456" lon="7.22689">
        <ele>811.3</ele>
        <time>2024-01-25T11:06:11Z</time>
      </trkpt>
      <trkpt lat="48.59475" lon="7.22683">
        <ele>809.2</ele>
        <time>2024-01-25T11:06:17Z</time>
      </trkpt>
      <trkpt lat="48.59493" lon="7.22689">
        <ele>806.3</ele>
        <time>2024-01-25T11:06:23Z</time>
      </trkpt>
      <trkpt lat="48.59504" lon="7.2271">
        <ele>802.6</ele>
        <time>2024-01-25T11:06:30Z</time>
      </trkpt>
      <trkpt lat="48.59518" lon="7.22729">
        <ele>798.7</ele>
        <time>2024-01-25T11:06:39Z</time>
      </trkpt>
      <trkpt lat="48.59524" lon="7.22737">
        <ele>796.8</ele>
        <time>2024-01-25T11:06:46Z</time>
      </trkpt>
      <trkpt lat="48.59543" lon="7.22745">
        <ele>793.1</ele>
        <time>2024-01-25T11:06:55Z</time>
      </trkpt>
      <trkpt lat="48.59561" lon="7.22747">
        <ele>789.1</ele>
        <time>2024-01-25T11:07:01Z</time>
      </trkpt>
      <trkpt lat="48.59579" lon="7.22742">
        <ele>787.1</ele>
        <time>2024-01-25T11:07:07Z</time>
      </trkpt>
      <trkpt lat="48.59598" lon="7.22741">
        <ele>784.4</ele>
        <time>2024-01-25T11:07:14Z</time>
      </trkpt>
      <trkpt lat="48.59616" lon="7.22733">
        <ele>782.1</ele>
        <time>2024-01-25T11:07:21Z</time>
      </trkpt>
      <trkpt lat="48.59631" lon="7.22714">
        <ele>778.7</ele>
        <time>2024-01-25T11:07:29Z</time>
      </trkpt>
      <trkpt lat="48.59646" lon="7.22695">
        <ele>774</ele>
        <time>2024-01-25T11:07:34Z</time>
      </trkpt>
      <trkpt lat="48.59652" lon="7.22668">
        <ele>771</ele>
        <time>2024-01-25T11:07:40Z</time>
      </trkpt>
      <trkpt lat="48.59657" lon="7.22639">
        <ele>767.6</ele>
        <time>2024-01-25T11:07:46Z</time>
      </trkpt>
      <trkpt lat="48.5966" lon="7.22608">
        <ele>763.4</ele>
        <time>2024-01-25T11:07:52Z</time>
      </trkpt>
      <trkpt lat="48.59665" lon="7.22578">
        <ele>760</ele>
        <time>2024-01-25T11:07:59Z</time>
      </trkpt>
      <trkpt lat="48.59671" lon="7.22552">
        <ele>755.2</ele>
        <time>2024-01-25T11:08:05Z</time>
      </trkpt>
      <trkpt lat="48.59677" lon="7.22522">
        <ele>752.5</ele>
        <time>2024-01-25T11:08:12Z</time>
      </trkpt>
      <trkpt lat="48.59687" lon="7.22495">
        <ele>751.4</ele>
        <time>2024-01-25T11:08:19Z</time>
      </trkpt>
      <trkpt lat="48.59696" lon="7.2247">
        <ele>750</ele>
        <time>2024-01-25T11:08:27Z</time>
      </trkpt>
      <trkpt lat="48.59708" lon="7.22449">
        <ele>746.4</ele>
        <time>2024-01-25T11:08:32Z</time>
      </trkpt>
      <trkpt lat="48.59724" lon="7.22429">
        <ele>742.3</ele>
        <time>2024-01-25T11:08:35Z</time>
      </trkpt>
      <trkpt lat="48.59739" lon="7.22403">
        <ele>738.6</ele>
        <time>2024-01-25T11:08:41Z</time>
      </trkpt>
      <trkpt lat="48.59749" lon="7.22376">
        <ele>736.5</ele>
        <time>2024-01-25T11:08:47Z</time>
      </trkpt>
      <trkpt lat="48.59757" lon="7.22349">
        <ele>734.5</ele>
        <time>2024-01-25T11:08:54Z</time>
      </trkpt>
      <trkpt lat="48.59768" lon="7.22326">
        <ele>732.5</ele>
        <time>2024-01-25T11:08:59Z</time>
      </trkpt>
      <trkpt lat="48.5978" lon="7.22303">
        <ele>730.6</ele>
        <time>2024-01-25T11:09:05Z</time>
      </trkpt>
      <trkpt lat="48.59789" lon="7.22275">
        <ele>728.8</ele>
        <time>2024-01-25T11:09:12Z</time>
      </trkpt>
      <trkpt lat="48.59786" lon="7.22248">
        <ele>727.4</ele>
        <time>2024-01-25T11:09:19Z</time>
      </trkpt>
      <trkpt lat="48.59783" lon="7.22241">
        <ele>727</ele>
        <time>2024-01-25T11:09:22Z</time>
      </trkpt>
      <trkpt lat="48.59789" lon="7.22214">
        <ele>726.3</ele>
        <time>2024-01-25T11:09:30Z</time>
      </trkpt>
      <trkpt lat="48.59803" lon="7.22192">
        <ele>725.7</ele>
        <time>2024-01-25T11:09:37Z</time>
      </trkpt>
      <trkpt lat="48.59816" lon="7.22172">
        <ele>725.4</ele>
        <time>2024-01-25T11:09:44Z</time>
      </trkpt>
      <trkpt lat="48.59831" lon="7.22157">
        <ele>725.5</ele>
        <time>2024-01-25T11:09:51Z</time>
      </trkpt>
      <trkpt lat="48.59844" lon="7.22138">
        <ele>726</ele>
        <time>2024-01-25T11:09:59Z</time>
      </trkpt>
      <trkpt lat="48.59853" lon="7.22112">
        <ele>726.7</ele>
        <time>2024-01-25T11:10:07Z</time>
      </trkpt>
      <trkpt lat="48.59864" lon="7.22089">
        <ele>728.1</ele>
        <time>2024-01-25T11:10:14Z</time>
      </trkpt>
      <trkpt lat="48.59876" lon="7.22065">
        <ele>727.9</ele>
        <time>2024-01-25T11:10:22Z</time>
      </trkpt>
      <trkpt lat="48.59883" lon="7.22038">
        <ele>726.1</ele>
        <time>2024-01-25T11:10:29Z</time>
      </trkpt>
      <trkpt lat="48.59889" lon="7.2201">
        <ele>723.8</ele>
        <time>2024-01-25T11:10:36Z</time>
      </trkpt>
      <trkpt lat="48.59894" lon="7.21985">
        <ele>722.5</ele>
        <time>2024-01-25T11:10:45Z</time>
      </trkpt>
      <trkpt lat="48.59902" lon="7.21989">
        <ele>724.5</ele>
        <time>2024-01-25T11:10:57Z</time>
      </trkpt>
      <trkpt lat="48.5992" lon="7.21996">
        <ele>728.3</ele>
        <time>2024-01-25T11:11:14Z</time>
      </trkpt>
      <trkpt lat="48.59923" lon="7.21996">
        <ele>728.8</ele>
        <time>2024-01-25T11:11:17Z</time>
      </trkpt>
      <trkpt lat="48.59934" lon="7.21999">
        <ele>730.2</ele>
        <time>2024-01-25T11:11:32Z</time>
      </trkpt>
      <trkpt lat="48.5994" lon="7.21999">
        <ele>730.7</ele>
        <time>2024-01-25T11:11:39Z</time>
      </trkpt>
      <trkpt lat="48.59944" lon="7.22">
        <ele>731.1</ele>
        <time>2024-01-25T11:11:43Z</time>
      </trkpt>
      <trkpt lat="48.59946" lon="7.22">
        <ele>731.1</ele>
        <time>2024-01-25T11:11:45Z</time>
      </trkpt>
      <trkpt lat="48.59961" lon="7.21989">
        <ele>732.4</ele>
        <time>2024-01-25T11:11:58Z</time>
      </trkpt>
      <trkpt lat="48.5996" lon="7.21985">
        <ele>732.3</ele>
        <time>2024-01-25T11:12:00Z</time>
      </trkpt>
      <trkpt lat="48.59956" lon="7.21958">
        <ele>730.6</ele>
        <time>2024-01-25T11:12:09Z</time>
      </trkpt>
      <trkpt lat="48.59958" lon="7.2193">
        <ele>728.3</ele>
        <time>2024-01-25T11:12:18Z</time>
      </trkpt>
      <trkpt lat="48.59958" lon="7.21901">
        <ele>724.6</ele>
        <time>2024-01-25T11:12:27Z</time>
      </trkpt>
      <trkpt lat="48.59958" lon="7.21899">
        <ele>724</ele>
        <time>2024-01-25T11:12:28Z</time>
      </trkpt>
      <trkpt lat="48.59957" lon="7.21894">
        <ele>722.9</ele>
        <time>2024-01-25T11:12:30Z</time>
      </trkpt>
      <trkpt lat="48.5996" lon="7.21867">
        <ele>719.6</ele>
        <time>2024-01-25T11:12:40Z</time>
      </trkpt>
      <trkpt lat="48.59954" lon="7.21846">
        <ele>715.9</ele>
        <time>2024-01-25T11:12:47Z</time>
      </trkpt>
      <trkpt lat="48.59955" lon="7.21844">
        <ele>715.5</ele>
        <time>2024-01-25T11:13:06Z</time>
      </trkpt>
      <trkpt lat="48.59955" lon="7.21849">
        <ele>716.8</ele>
        <time>2024-01-25T11:13:08Z</time>
      </trkpt>
      <trkpt lat="48.59963" lon="7.21875">
        <ele>721.1</ele>
        <time>2024-01-25T11:13:17Z</time>
      </trkpt>
      <trkpt lat="48.59973" lon="7.21899">
        <ele>725.4</ele>
        <time>2024-01-25T11:13:24Z</time>
      </trkpt>
      <trkpt lat="48.59983" lon="7.21921">
        <ele>729.2</ele>
        <time>2024-01-25T11:13:31Z</time>
      </trkpt>
      <trkpt lat="48.60003" lon="7.21931">
        <ele>731.6</ele>
        <time>2024-01-25T11:13:38Z</time>
      </trkpt>
      <trkpt lat="48.60021" lon="7.21934">
        <ele>731.3</ele>
        <time>2024-01-25T11:13:44Z</time>
      </trkpt>
      <trkpt lat="48.60038" lon="7.21949">
        <ele>731.1</ele>
        <time>2024-01-25T11:13:50Z</time>
      </trkpt>
      <trkpt lat="48.60054" lon="7.21966">
        <ele>729.6</ele>
        <time>2024-01-25T11:13:57Z</time>
      </trkpt>
      <trkpt lat="48.60069" lon="7.2198">
        <ele>728.2</ele>
        <time>2024-01-25T11:14:05Z</time>
      </trkpt>
      <trkpt lat="48.60088" lon="7.21987">
        <ele>724.9</ele>
        <time>2024-01-25T11:14:12Z</time>
      </trkpt>
      <trkpt lat="48.60107" lon="7.21984">
        <ele>723.6</ele>
        <time>2024-01-25T11:14:19Z</time>
      </trkpt>
      <trkpt lat="48.60126" lon="7.21983">
        <ele>722.3</ele>
        <time>2024-01-25T11:14:26Z</time>
      </trkpt>
      <trkpt lat="48.60146" lon="7.21981">
        <ele>721.6</ele>
        <time>2024-01-25T11:14:33Z</time>
      </trkpt>
      <trkpt lat="48.60166" lon="7.21977">
        <ele>720.9</ele>
        <time>2024-01-25T11:14:41Z</time>
      </trkpt>
      <trkpt lat="48.60186" lon="7.2198">
        <ele>720.4</ele>
        <time>2024-01-25T11:14:49Z</time>
      </trkpt>
      <trkpt lat="48.60204" lon="7.21971">
        <ele>720.4</ele>
        <time>2024-01-25T11:14:56Z</time>
      </trkpt>
      <trkpt lat="48.60224" lon="7.21968">
        <ele>720.3</ele>
        <time>2024-01-25T11:15:03Z</time>
      </trkpt>
      <trkpt lat="48.60243" lon="7.21958">
        <ele>719.9</ele>
        <time>2024-01-25T11:15:11Z</time>
      </trkpt>
      <trkpt lat="48.6026" lon="7.21943">
        <ele>719.7</ele>
        <time>2024-01-25T11:15:19Z</time>
      </trkpt>
      <trkpt lat="48.60273" lon="7.21927">
        <ele>719.2</ele>
        <time>2024-01-25T11:15:27Z</time>
      </trkpt>
      <trkpt lat="48.60288" lon="7.21911">
        <ele>717.1</ele>
        <time>2024-01-25T11:15:37Z</time>
      </trkpt>
      <trkpt lat="48.60301" lon="7.21893">
        <ele>714.6</ele>
        <time>2024-01-25T11:15:48Z</time>
      </trkpt>
      <trkpt lat="48.60314" lon="7.21873">
        <ele>712.1</ele>
        <time>2024-01-25T11:15:56Z</time>
      </trkpt>
      <trkpt lat="48.60329" lon="7.21854">
        <ele>709.5</ele>
        <time>2024-01-25T11:16:04Z</time>
      </trkpt>
      <trkpt lat="48.60348" lon="7.21844">
        <ele>707.5</ele>
        <time>2024-01-25T11:16:11Z</time>
      </trkpt>
      <trkpt lat="48.60365" lon="7.21834">
        <ele>705.4</ele>
        <time>2024-01-25T11:16:21Z</time>
      </trkpt>
      <trkpt lat="48.60369" lon="7.21833">
        <ele>705</ele>
        <time>2024-01-25T11:16:23Z</time>
      </trkpt>
      <trkpt lat="48.60385" lon="7.21818">
        <ele>703.4</ele>
        <time>2024-01-25T11:16:32Z</time>
      </trkpt>
      <trkpt lat="48.60399" lon="7.218">
        <ele>701.3</ele>
        <time>2024-01-25T11:16:39Z</time>
      </trkpt>
      <trkpt lat="48.60418" lon="7.21792">
        <ele>701.8</ele>
        <time>2024-01-25T11:16:46Z</time>
      </trkpt>
      <trkpt lat="48.60435" lon="7.21777">
        <ele>702.6</ele>
        <time>2024-01-25T11:16:55Z</time>
      </trkpt>
      <trkpt lat="48.60448" lon="7.21758">
        <ele>701.2</ele>
        <time>2024-01-25T11:17:04Z</time>
      </trkpt>
      <trkpt lat="48.60456" lon="7.21749">
        <ele>700.1</ele>
        <time>2024-01-25T11:17:11Z</time>
      </trkpt>
      <trkpt lat="48.60452" lon="7.21723">
        <ele>697.3</ele>
        <time>2024-01-25T11:17:19Z</time>
      </trkpt>
      <trkpt lat="48.60459" lon="7.21692">
        <ele>694.8</ele>
        <time>2024-01-25T11:17:26Z</time>
      </trkpt>
      <trkpt lat="48.60469" lon="7.21668">
        <ele>693.6</ele>
        <time>2024-01-25T11:17:32Z</time>
      </trkpt>
      <trkpt lat="48.60471" lon="7.2164">
        <ele>693.2</ele>
        <time>2024-01-25T11:17:38Z</time>
      </trkpt>
      <trkpt lat="48.6047" lon="7.21611">
        <ele>691.4</ele>
        <time>2024-01-25T11:17:43Z</time>
      </trkpt>
      <trkpt lat="48.60474" lon="7.21582">
        <ele>689.6</ele>
        <time>2024-01-25T11:17:48Z</time>
      </trkpt>
      <trkpt lat="48.60483" lon="7.21553">
        <ele>687.8</ele>
        <time>2024-01-25T11:17:54Z</time>
      </trkpt>
      <trkpt lat="48.60487" lon="7.21524">
        <ele>686.1</ele>
        <time>2024-01-25T11:18:00Z</time>
      </trkpt>
      <trkpt lat="48.60491" lon="7.21495">
        <ele>684.4</ele>
        <time>2024-01-25T11:18:06Z</time>
      </trkpt>
      <trkpt lat="48.605" lon="7.21468">
        <ele>682.6</ele>
        <time>2024-01-25T11:18:11Z</time>
      </trkpt>
      <trkpt lat="48.60507" lon="7.21443">
        <ele>681.1</ele>
        <time>2024-01-25T11:18:16Z</time>
      </trkpt>
      <trkpt lat="48.60515" lon="7.21418">
        <ele>678.8</ele>
        <time>2024-01-25T11:18:22Z</time>
      </trkpt>
      <trkpt lat="48.60526" lon="7.21396">
        <ele>676.4</ele>
        <time>2024-01-25T11:18:28Z</time>
      </trkpt>
      <trkpt lat="48.6054" lon="7.21376">
        <ele>673.2</ele>
        <time>2024-01-25T11:18:34Z</time>
      </trkpt>
      <trkpt lat="48.60557" lon="7.21364">
        <ele>669.4</ele>
        <time>2024-01-25T11:18:39Z</time>
      </trkpt>
      <trkpt lat="48.60574" lon="7.21353">
        <ele>665.3</ele>
        <time>2024-01-25T11:18:46Z</time>
      </trkpt>
      <trkpt lat="48.6059" lon="7.21335">
        <ele>660.4</ele>
        <time>2024-01-25T11:18:57Z</time>
      </trkpt>
      <trkpt lat="48.60607" lon="7.21321">
        <ele>656.6</ele>
        <time>2024-01-25T11:19:04Z</time>
      </trkpt>
      <trkpt lat="48.60621" lon="7.21311">
        <ele>653.3</ele>
        <time>2024-01-25T11:19:11Z</time>
      </trkpt>
      <trkpt lat="48.60636" lon="7.21295">
        <ele>649.7</ele>
        <time>2024-01-25T11:19:18Z</time>
      </trkpt>
      <trkpt lat="48.60652" lon="7.21281">
        <ele>646.7</ele>
        <time>2024-01-25T11:19:24Z</time>
      </trkpt>
      <trkpt lat="48.60663" lon="7.21273">
        <ele>644.6</ele>
        <time>2024-01-25T11:19:31Z</time>
      </trkpt>
      <trkpt lat="48.60675" lon="7.21251">
        <ele>641.5</ele>
        <time>2024-01-25T11:19:39Z</time>
      </trkpt>
      <trkpt lat="48.60691" lon="7.21234">
        <ele>639.2</ele>
        <time>2024-01-25T11:19:45Z</time>
      </trkpt>
      <trkpt lat="48.60706" lon="7.21219">
        <ele>637.2</ele>
        <time>2024-01-25T11:19:50Z</time>
      </trkpt>
      <trkpt lat="48.6072" lon="7.21201">
        <ele>635.5</ele>
        <time>2024-01-25T11:19:55Z</time>
      </trkpt>
      <trkpt lat="48.60736" lon="7.21184">
        <ele>632.2</ele>
        <time>2024-01-25T11:20:00Z</time>
      </trkpt>
      <trkpt lat="48.60748" lon="7.21164">
        <ele>629.7</ele>
        <time>2024-01-25T11:20:07Z</time>
      </trkpt>
      <trkpt lat="48.60759" lon="7.21142">
        <ele>628.4</ele>
        <time>2024-01-25T11:20:26Z</time>
      </trkpt>
      <trkpt lat="48.60759" lon="7.2114">
        <ele>628.5</ele>
        <time>2024-01-25T11:20:30Z</time>
      </trkpt>
      <trkpt lat="48.60761" lon="7.21138">
        <ele>628.2</ele>
        <time>2024-01-25T11:20:33Z</time>
      </trkpt>
      <trkpt lat="48.60763" lon="7.21136">
        <ele>628.4</ele>
        <time>2024-01-25T11:20:35Z</time>
      </trkpt>
      <trkpt lat="48.60764" lon="7.21134">
        <ele>628.1</ele>
        <time>2024-01-25T11:20:39Z</time>
      </trkpt>
      <trkpt lat="48.60764" lon="7.21134">
        <ele>628</ele>
        <time>2024-01-25T11:20:41Z</time>
      </trkpt>
      <trkpt lat="48.60764" lon="7.21135">
        <ele>628</ele>
        <time>2024-01-25T11:20:45Z</time>
      </trkpt>
      <trkpt lat="48.60766" lon="7.21128">
        <ele>627.8</ele>
        <time>2024-01-25T11:20:50Z</time>
      </trkpt>
      <trkpt lat="48.6078" lon="7.21111">
        <ele>627.3</ele>
        <time>2024-01-25T11:21:05Z</time>
      </trkpt>
      <trkpt lat="48.60782" lon="7.21108">
        <ele>626.9</ele>
        <time>2024-01-25T11:21:08Z</time>
      </trkpt>
      <trkpt lat="48.60782" lon="7.21105">
        <ele>627.2</ele>
        <time>2024-01-25T11:21:11Z</time>
      </trkpt>
      <trkpt lat="48.60786" lon="7.21099">
        <ele>627.2</ele>
        <time>2024-01-25T11:21:16Z</time>
      </trkpt>
      <trkpt lat="48.60789" lon="7.21094">
        <ele>627.3</ele>
        <time>2024-01-25T11:21:19Z</time>
      </trkpt>
      <trkpt lat="48.60791" lon="7.21089">
        <ele>627.6</ele>
        <time>2024-01-25T11:21:22Z</time>
      </trkpt>
      <trkpt lat="48.60795" lon="7.21083">
        <ele>627.4</ele>
        <time>2024-01-25T11:21:27Z</time>
      </trkpt>
      <trkpt lat="48.60803" lon="7.2107">
        <ele>627.3</ele>
        <time>2024-01-25T11:21:37Z</time>
      </trkpt>
      <trkpt lat="48.60807" lon="7.21061">
        <ele>627.5</ele>
        <time>2024-01-25T11:21:41Z</time>
      </trkpt>
      <trkpt lat="48.6082" lon="7.21042">
        <ele>628.9</ele>
        <time>2024-01-25T11:21:49Z</time>
      </trkpt>
      <trkpt lat="48.60836" lon="7.21027">
        <ele>629.3</ele>
        <time>2024-01-25T11:21:56Z</time>
      </trkpt>
      <trkpt lat="48.60849" lon="7.21006">
        <ele>630</ele>
        <time>2024-01-25T11:22:03Z</time>
      </trkpt>
      <trkpt lat="48.60858" lon="7.20983">
        <ele>632.2</ele>
        <time>2024-01-25T11:22:10Z</time>
      </trkpt>
      <trkpt lat="48.60873" lon="7.20967">
        <ele>632.3</ele>
        <time>2024-01-25T11:22:16Z</time>
      </trkpt>
      <trkpt lat="48.60888" lon="7.20945">
        <ele>633.4</ele>
        <time>2024-01-25T11:22:23Z</time>
      </trkpt>
      <trkpt lat="48.60903" lon="7.20927">
        <ele>633</ele>
        <time>2024-01-25T11:22:29Z</time>
      </trkpt>
      <trkpt lat="48.60914" lon="7.20904">
        <ele>633.9</ele>
        <time>2024-01-25T11:22:37Z</time>
      </trkpt>
      <trkpt lat="48.60931" lon="7.20889">
        <ele>633</ele>
        <time>2024-01-25T11:22:44Z</time>
      </trkpt>
      <trkpt lat="48.60942" lon="7.20866">
        <ele>633.8</ele>
        <time>2024-01-25T11:22:52Z</time>
      </trkpt>
      <trkpt lat="48.60949" lon="7.20839">
        <ele>634.3</ele>
        <time>2024-01-25T11:23:00Z</time>
      </trkpt>
      <trkpt lat="48.60954" lon="7.20809">
        <ele>633.3</ele>
        <time>2024-01-25T11:23:07Z</time>
      </trkpt>
      <trkpt lat="48.60961" lon="7.20782">
        <ele>633</ele>
        <time>2024-01-25T11:23:13Z</time>
      </trkpt>
      <trkpt lat="48.60963" lon="7.20754">
        <ele>634.7</ele>
        <time>2024-01-25T11:23:21Z</time>
      </trkpt>
      <trkpt lat="48.60967" lon="7.20727">
        <ele>636.8</ele>
        <time>2024-01-25T11:23:30Z</time>
      </trkpt>
      <trkpt lat="48.60973" lon="7.20699">
        <ele>638.1</ele>
        <time>2024-01-25T11:23:38Z</time>
      </trkpt>
      <trkpt lat="48.60976" lon="7.20672">
        <ele>640.4</ele>
        <time>2024-01-25T11:23:52Z</time>
      </trkpt>
      <trkpt lat="48.60978" lon="7.20644">
        <ele>642.4</ele>
        <time>2024-01-25T11:24:02Z</time>
      </trkpt>
      <trkpt lat="48.60981" lon="7.20618">
        <ele>644.2</ele>
        <time>2024-01-25T11:24:14Z</time>
      </trkpt>
      <trkpt lat="48.60992" lon="7.20591">
        <ele>646.1</ele>
        <time>2024-01-25T11:24:22Z</time>
      </trkpt>
      <trkpt lat="48.61007" lon="7.20577">
        <ele>647.2</ele>
        <time>2024-01-25T11:24:28Z</time>
      </trkpt>
      <trkpt lat="48.61026" lon="7.20575">
        <ele>646.7</ele>
        <time>2024-01-25T11:24:35Z</time>
      </trkpt>
      <trkpt lat="48.61047" lon="7.20576">
        <ele>645</ele>
        <time>2024-01-25T11:24:42Z</time>
      </trkpt>
      <trkpt lat="48.61065" lon="7.20565">
        <ele>645.7</ele>
        <time>2024-01-25T11:24:49Z</time>
      </trkpt>
      <trkpt lat="48.61083" lon="7.20555">
        <ele>645.5</ele>
        <time>2024-01-25T11:24:56Z</time>
      </trkpt>
      <trkpt lat="48.61103" lon="7.20548">
        <ele>645.4</ele>
        <time>2024-01-25T11:25:04Z</time>
      </trkpt>
      <trkpt lat="48.61123" lon="7.20538">
        <ele>645.6</ele>
        <time>2024-01-25T11:25:11Z</time>
      </trkpt>
      <trkpt lat="48.61141" lon="7.20533">
        <ele>645.3</ele>
        <time>2024-01-25T11:25:19Z</time>
      </trkpt>
      <trkpt lat="48.61163" lon="7.2053">
        <ele>644.8</ele>
        <time>2024-01-25T11:25:29Z</time>
      </trkpt>
      <trkpt lat="48.61183" lon="7.20518">
        <ele>645</ele>
        <time>2024-01-25T11:25:34Z</time>
      </trkpt>
      <trkpt lat="48.61201" lon="7.20512">
        <ele>644.3</ele>
        <time>2024-01-25T11:25:39Z</time>
      </trkpt>
      <trkpt lat="48.61219" lon="7.20502">
        <ele>643.8</ele>
        <time>2024-01-25T11:25:44Z</time>
      </trkpt>
      <trkpt lat="48.61237" lon="7.20485">
        <ele>642.3</ele>
        <time>2024-01-25T11:25:50Z</time>
      </trkpt>
      <trkpt lat="48.61254" lon="7.20469">
        <ele>640.1</ele>
        <time>2024-01-25T11:25:57Z</time>
      </trkpt>
      <trkpt lat="48.61268" lon="7.20449">
        <ele>638</ele>
        <time>2024-01-25T11:26:04Z</time>
      </trkpt>
      <trkpt lat="48.61284" lon="7.20433">
        <ele>634.8</ele>
        <time>2024-01-25T11:26:10Z</time>
      </trkpt>
      <trkpt lat="48.61302" lon="7.20419">
        <ele>631</ele>
        <time>2024-01-25T11:26:17Z</time>
      </trkpt>
      <trkpt lat="48.61319" lon="7.20407">
        <ele>626.8</ele>
        <time>2024-01-25T11:26:26Z</time>
      </trkpt>
      <trkpt lat="48.6133" lon="7.20397">
        <ele>622.9</ele>
        <time>2024-01-25T11:26:33Z</time>
      </trkpt>
      <trkpt lat="48.61336" lon="7.20394">
        <ele>620.7</ele>
        <time>2024-01-25T11:26:37Z</time>
      </trkpt>
      <trkpt lat="48.61341" lon="7.20389">
        <ele>618.4</ele>
        <time>2024-01-25T11:26:41Z</time>
      </trkpt>
      <trkpt lat="48.61345" lon="7.20393">
        <ele>617</ele>
        <time>2024-01-25T11:26:45Z</time>
      </trkpt>
      <trkpt lat="48.61357" lon="7.2037">
        <ele>610.7</ele>
        <time>2024-01-25T11:26:54Z</time>
      </trkpt>
      <trkpt lat="48.61372" lon="7.20353">
        <ele>603</ele>
        <time>2024-01-25T11:27:02Z</time>
      </trkpt>
      <trkpt lat="48.61385" lon="7.20354">
        <ele>596.9</ele>
        <time>2024-01-25T11:27:08Z</time>
      </trkpt>
      <trkpt lat="48.61402" lon="7.20341">
        <ele>587.5</ele>
        <time>2024-01-25T11:27:16Z</time>
      </trkpt>
      <trkpt lat="48.61413" lon="7.20319">
        <ele>582.2</ele>
        <time>2024-01-25T11:27:24Z</time>
      </trkpt>
      <trkpt lat="48.61426" lon="7.203">
        <ele>574.2</ele>
        <time>2024-01-25T11:27:31Z</time>
      </trkpt>
      <trkpt lat="48.61441" lon="7.20285">
        <ele>566.4</ele>
        <time>2024-01-25T11:27:42Z</time>
      </trkpt>
      <trkpt lat="48.61456" lon="7.20265">
        <ele>559.9</ele>
        <time>2024-01-25T11:27:50Z</time>
      </trkpt>
      <trkpt lat="48.61471" lon="7.20249">
        <ele>555</ele>
        <time>2024-01-25T11:27:55Z</time>
      </trkpt>
      <trkpt lat="48.61489" lon="7.20231">
        <ele>549.7</ele>
        <time>2024-01-25T11:28:00Z</time>
      </trkpt>
      <trkpt lat="48.61505" lon="7.20214">
        <ele>544.6</ele>
        <time>2024-01-25T11:28:05Z</time>
      </trkpt>
      <trkpt lat="48.6152" lon="7.20193">
        <ele>541.4</ele>
        <time>2024-01-25T11:28:11Z</time>
      </trkpt>
      <trkpt lat="48.61538" lon="7.20177">
        <ele>536.9</ele>
        <time>2024-01-25T11:28:18Z</time>
      </trkpt>
      <trkpt lat="48.61554" lon="7.20163">
        <ele>533.1</ele>
        <time>2024-01-25T11:28:25Z</time>
      </trkpt>
      <trkpt lat="48.61573" lon="7.20148">
        <ele>527.9</ele>
        <time>2024-01-25T11:28:35Z</time>
      </trkpt>
      <trkpt lat="48.61592" lon="7.20136">
        <ele>522.6</ele>
        <time>2024-01-25T11:28:41Z</time>
      </trkpt>
      <trkpt lat="48.61609" lon="7.20124">
        <ele>518.6</ele>
        <time>2024-01-25T11:28:47Z</time>
      </trkpt>
      <trkpt lat="48.61627" lon="7.20112">
        <ele>514.3</ele>
        <time>2024-01-25T11:28:53Z</time>
      </trkpt>
      <trkpt lat="48.61646" lon="7.20098">
        <ele>509.5</ele>
        <time>2024-01-25T11:28:57Z</time>
      </trkpt>
      <trkpt lat="48.61664" lon="7.2008">
        <ele>504.5</ele>
        <time>2024-01-25T11:29:01Z</time>
      </trkpt>
      <trkpt lat="48.6168" lon="7.20058">
        <ele>500.9</ele>
        <time>2024-01-25T11:29:06Z</time>
      </trkpt>
      <trkpt lat="48.61693" lon="7.20039">
        <ele>499.1</ele>
        <time>2024-01-25T11:29:11Z</time>
      </trkpt>
      <trkpt lat="48.61709" lon="7.20016">
        <ele>496.7</ele>
        <time>2024-01-25T11:29:16Z</time>
      </trkpt>
      <trkpt lat="48.61721" lon="7.19997">
        <ele>494.9</ele>
        <time>2024-01-25T11:29:21Z</time>
      </trkpt>
      <trkpt lat="48.61737" lon="7.19973">
        <ele>493</ele>
        <time>2024-01-25T11:29:27Z</time>
      </trkpt>
      <trkpt lat="48.61752" lon="7.19956">
        <ele>491.6</ele>
        <time>2024-01-25T11:29:32Z</time>
      </trkpt>
      <trkpt lat="48.61765" lon="7.19937">
        <ele>490.2</ele>
        <time>2024-01-25T11:29:38Z</time>
      </trkpt>
      <trkpt lat="48.6178" lon="7.19918">
        <ele>488.7</ele>
        <time>2024-01-25T11:29:44Z</time>
      </trkpt>
      <trkpt lat="48.61793" lon="7.19892">
        <ele>487.6</ele>
        <time>2024-01-25T11:29:50Z</time>
      </trkpt>
      <trkpt lat="48.61806" lon="7.19872">
        <ele>486.4</ele>
        <time>2024-01-25T11:29:56Z</time>
      </trkpt>
      <trkpt lat="48.6182" lon="7.19852">
        <ele>484.9</ele>
        <time>2024-01-25T11:30:02Z</time>
      </trkpt>
      <trkpt lat="48.61833" lon="7.19831">
        <ele>484.1</ele>
        <time>2024-01-25T11:30:08Z</time>
      </trkpt>
      <trkpt lat="48.61846" lon="7.19812">
        <ele>483.1</ele>
        <time>2024-01-25T11:30:13Z</time>
      </trkpt>
      <trkpt lat="48.61859" lon="7.1979">
        <ele>482.8</ele>
        <time>2024-01-25T11:30:19Z</time>
      </trkpt>
      <trkpt lat="48.61869" lon="7.19768">
        <ele>483.2</ele>
        <time>2024-01-25T11:30:25Z</time>
      </trkpt>
      <trkpt lat="48.61884" lon="7.19751">
        <ele>483.1</ele>
        <time>2024-01-25T11:30:31Z</time>
      </trkpt>
      <trkpt lat="48.61895" lon="7.19731">
        <ele>483.4</ele>
        <time>2024-01-25T11:30:39Z</time>
      </trkpt>
      <trkpt lat="48.61894" lon="7.19724">
        <ele>483.9</ele>
        <time>2024-01-25T11:30:43Z</time>
      </trkpt>
      <trkpt lat="48.61907" lon="7.19704">
        <ele>483.9</ele>
        <time>2024-01-25T11:30:51Z</time>
      </trkpt>
      <trkpt lat="48.61924" lon="7.19692">
        <ele>483.4</ele>
        <time>2024-01-25T11:30:58Z</time>
      </trkpt>
      <trkpt lat="48.61937" lon="7.19671">
        <ele>484</ele>
        <time>2024-01-25T11:31:08Z</time>
      </trkpt>
      <trkpt lat="48.6195" lon="7.19647">
        <ele>484</ele>
        <time>2024-01-25T11:31:18Z</time>
      </trkpt>
      <trkpt lat="48.61962" lon="7.19625">
        <ele>484.8</ele>
        <time>2024-01-25T11:31:27Z</time>
      </trkpt>
      <trkpt lat="48.61973" lon="7.19601">
        <ele>486.8</ele>
        <time>2024-01-25T11:31:38Z</time>
      </trkpt>
      <trkpt lat="48.61987" lon="7.19581">
        <ele>486.7</ele>
        <time>2024-01-25T11:31:48Z</time>
      </trkpt>
      <trkpt lat="48.61999" lon="7.19558">
        <ele>485.4</ele>
        <time>2024-01-25T11:31:57Z</time>
      </trkpt>
      <trkpt lat="48.62014" lon="7.19542">
        <ele>483.4</ele>
        <time>2024-01-25T11:32:04Z</time>
      </trkpt>
      <trkpt lat="48.62026" lon="7.19518">
        <ele>482.7</ele>
        <time>2024-01-25T11:32:09Z</time>
      </trkpt>
      <trkpt lat="48.62039" lon="7.19499">
        <ele>481</ele>
        <time>2024-01-25T11:32:13Z</time>
      </trkpt>
      <trkpt lat="48.62054" lon="7.19476">
        <ele>479.4</ele>
        <time>2024-01-25T11:32:18Z</time>
      </trkpt>
      <trkpt lat="48.62071" lon="7.19454">
        <ele>478</ele>
        <time>2024-01-25T11:32:22Z</time>
      </trkpt>
      <trkpt lat="48.62084" lon="7.1943">
        <ele>476.4</ele>
        <time>2024-01-25T11:32:26Z</time>
      </trkpt>
      <trkpt lat="48.62096" lon="7.19405">
        <ele>475</ele>
        <time>2024-01-25T11:32:31Z</time>
      </trkpt>
      <trkpt lat="48.62106" lon="7.19377">
        <ele>473.3</ele>
        <time>2024-01-25T11:32:36Z</time>
      </trkpt>
      <trkpt lat="48.62114" lon="7.19347">
        <ele>470.8</ele>
        <time>2024-01-25T11:32:42Z</time>
      </trkpt>
      <trkpt lat="48.62122" lon="7.19318">
        <ele>467.7</ele>
        <time>2024-01-25T11:32:47Z</time>
      </trkpt>
      <trkpt lat="48.62132" lon="7.19289">
        <ele>462.9</ele>
        <time>2024-01-25T11:32:52Z</time>
      </trkpt>
      <trkpt lat="48.6214" lon="7.19262">
        <ele>457.7</ele>
        <time>2024-01-25T11:32:57Z</time>
      </trkpt>
      <trkpt lat="48.62145" lon="7.19246">
        <ele>454.4</ele>
        <time>2024-01-25T11:33:00Z</time>
      </trkpt>
      <trkpt lat="48.62146" lon="7.19235">
        <ele>451.9</ele>
        <time>2024-01-25T11:33:02Z</time>
      </trkpt>
      <trkpt lat="48.62151" lon="7.19203">
        <ele>446.2</ele>
        <time>2024-01-25T11:33:07Z</time>
      </trkpt>
      <trkpt lat="48.62157" lon="7.19176">
        <ele>440.4</ele>
        <time>2024-01-25T11:33:11Z</time>
      </trkpt>
      <trkpt lat="48.62161" lon="7.19149">
        <ele>435</ele>
        <time>2024-01-25T11:33:15Z</time>
      </trkpt>
      <trkpt lat="48.62165" lon="7.19125">
        <ele>431.1</ele>
        <time>2024-01-25T11:33:18Z</time>
      </trkpt>
      <trkpt lat="48.62173" lon="7.19095">
        <ele>426.7</ele>
        <time>2024-01-25T11:33:22Z</time>
      </trkpt>
      <trkpt lat="48.62174" lon="7.19082">
        <ele>424.5</ele>
        <time>2024-01-25T11:33:24Z</time>
      </trkpt>
      <trkpt lat="48.62181" lon="7.19063">
        <ele>420.9</ele>
        <time>2024-01-25T11:33:29Z</time>
      </trkpt>
      <trkpt lat="48.62178" lon="7.19036">
        <ele>414.3</ele>
        <time>2024-01-25T11:33:35Z</time>
      </trkpt>
      <trkpt lat="48.62178" lon="7.19027">
        <ele>412.1</ele>
        <time>2024-01-25T11:33:37Z</time>
      </trkpt>
      <trkpt lat="48.62179" lon="7.18996">
        <ele>403.6</ele>
        <time>2024-01-25T11:33:42Z</time>
      </trkpt>
      <trkpt lat="48.6218" lon="7.1899">
        <ele>401.2</ele>
        <time>2024-01-25T11:33:43Z</time>
      </trkpt>
      <trkpt lat="48.62182" lon="7.18973">
        <ele>396.2</ele>
        <time>2024-01-25T11:33:46Z</time>
      </trkpt>
      <trkpt lat="48.62186" lon="7.18963">
        <ele>393.4</ele>
        <time>2024-01-25T11:33:48Z</time>
      </trkpt>
      <trkpt lat="48.6219" lon="7.18948">
        <ele>389.5</ele>
        <time>2024-01-25T11:33:51Z</time>
      </trkpt>
      <trkpt lat="48.62191" lon="7.18941">
        <ele>387.1</ele>
        <time>2024-01-25T11:33:53Z</time>
      </trkpt>
      <trkpt lat="48.62191" lon="7.18937">
        <ele>385.9</ele>
        <time>2024-01-25T11:33:55Z</time>
      </trkpt>
      <trkpt lat="48.6219" lon="7.18913">
        <ele>378.7</ele>
        <time>2024-01-25T11:34:03Z</time>
      </trkpt>
      <trkpt lat="48.62193" lon="7.18882">
        <ele>373.1</ele>
        <time>2024-01-25T11:34:13Z</time>
      </trkpt>
      <trkpt lat="48.62193" lon="7.18874">
        <ele>371.7</ele>
        <time>2024-01-25T11:34:15Z</time>
      </trkpt>
      <trkpt lat="48.62187" lon="7.18844">
        <ele>369</ele>
        <time>2024-01-25T11:34:24Z</time>
      </trkpt>
      <trkpt lat="48.6219" lon="7.1883">
        <ele>369.3</ele>
        <time>2024-01-25T11:34:28Z</time>
      </trkpt>
      <trkpt lat="48.62198" lon="7.18821">
        <ele>369.4</ele>
        <time>2024-01-25T11:34:35Z</time>
      </trkpt>
      <trkpt lat="48.62189" lon="7.18796">
        <ele>369.8</ele>
        <time>2024-01-25T11:34:52Z</time>
      </trkpt>
      <trkpt lat="48.62174" lon="7.18783">
        <ele>371.2</ele>
        <time>2024-01-25T11:35:06Z</time>
      </trkpt>
      <trkpt lat="48.62161" lon="7.18797">
        <ele>371</ele>
        <time>2024-01-25T11:35:19Z</time>
      </trkpt>
      <trkpt lat="48.6216" lon="7.18796">
        <ele>371</ele>
        <time>2024-01-25T11:35:23Z</time>
      </trkpt>
      <trkpt lat="48.6215" lon="7.18801">
        <ele>371.5</ele>
        <time>2024-01-25T11:35:32Z</time>
      </trkpt>
      <trkpt lat="48.62146" lon="7.18797">
        <ele>372.1</ele>
        <time>2024-01-25T11:35:38Z</time>
      </trkpt>
      <trkpt lat="48.62128" lon="7.18795">
        <ele>374.4</ele>
        <time>2024-01-25T11:36:02Z</time>
      </trkpt>
      <trkpt lat="48.62127" lon="7.18793">
        <ele>375.3</ele>
        <time>2024-01-25T11:36:04Z</time>
      </trkpt>
      <trkpt lat="48.62126" lon="7.18791">
        <ele>375.3</ele>
        <time>2024-01-25T11:36:06Z</time>
      </trkpt>
      <trkpt lat="48.62116" lon="7.18779">
        <ele>378.7</ele>
        <time>2024-01-25T11:36:15Z</time>
      </trkpt>
      <trkpt lat="48.62108" lon="7.18771">
        <ele>381.7</ele>
        <time>2024-01-25T11:36:23Z</time>
      </trkpt>
      <trkpt lat="48.62101" lon="7.18765">
        <ele>383.6</ele>
        <time>2024-01-25T11:36:30Z</time>
      </trkpt>
      <trkpt lat="48.62085" lon="7.18761">
        <ele>388.5</ele>
        <time>2024-01-25T11:36:56Z</time>
      </trkpt>
      <trkpt lat="48.62069" lon="7.18745">
        <ele>396.5</ele>
        <time>2024-01-25T11:37:08Z</time>
      </trkpt>
      <trkpt lat="48.62066" lon="7.18718">
        <ele>403.4</ele>
        <time>2024-01-25T11:37:22Z</time>
      </trkpt>
      <trkpt lat="48.62065" lon="7.18716">
        <ele>404</ele>
        <time>2024-01-25T11:37:24Z</time>
      </trkpt>
      <trkpt lat="48.62063" lon="7.1871">
        <ele>405.8</ele>
        <time>2024-01-25T11:37:28Z</time>
      </trkpt>
      <trkpt lat="48.62047" lon="7.18689">
        <ele>414.7</ele>
        <time>2024-01-25T11:37:39Z</time>
      </trkpt>
      <trkpt lat="48.62033" lon="7.18671">
        <ele>420.3</ele>
        <time>2024-01-25T11:37:47Z</time>
      </trkpt>
      <trkpt lat="48.62018" lon="7.18652">
        <ele>425.4</ele>
        <time>2024-01-25T11:37:56Z</time>
      </trkpt>
      <trkpt lat="48.62009" lon="7.18628">
        <ele>428.9</ele>
        <time>2024-01-25T11:38:04Z</time>
      </trkpt>
      <trkpt lat="48.62009" lon="7.18615">
        <ele>430.1</ele>
        <time>2024-01-25T11:38:09Z</time>
      </trkpt>
      <trkpt lat="48.62007" lon="7.18587">
        <ele>433</ele>
        <time>2024-01-25T11:38:18Z</time>
      </trkpt>
      <trkpt lat="48.62" lon="7.1856">
        <ele>434.9</ele>
        <time>2024-01-25T11:38:28Z</time>
      </trkpt>
      <trkpt lat="48.61988" lon="7.18539">
        <ele>437</ele>
        <time>2024-01-25T11:38:39Z</time>
      </trkpt>
      <trkpt lat="48.61977" lon="7.18515">
        <ele>438.3</ele>
        <time>2024-01-25T11:38:50Z</time>
      </trkpt>
      <trkpt lat="48.61976" lon="7.18495">
        <ele>440.4</ele>
        <time>2024-01-25T11:38:59Z</time>
      </trkpt>
      <trkpt lat="48.61962" lon="7.18476">
        <ele>442.2</ele>
        <time>2024-01-25T11:39:09Z</time>
      </trkpt>
      <trkpt lat="48.61951" lon="7.18452">
        <ele>443.7</ele>
        <time>2024-01-25T11:39:19Z</time>
      </trkpt>
      <trkpt lat="48.61945" lon="7.18426">
        <ele>446</ele>
        <time>2024-01-25T11:39:29Z</time>
      </trkpt>
      <trkpt lat="48.61937" lon="7.18401">
        <ele>447.7</ele>
        <time>2024-01-25T11:39:40Z</time>
      </trkpt>
      <trkpt lat="48.61926" lon="7.18379">
        <ele>449.1</ele>
        <time>2024-01-25T11:39:49Z</time>
      </trkpt>
      <trkpt lat="48.61915" lon="7.18358">
        <ele>450.6</ele>
        <time>2024-01-25T11:39:58Z</time>
      </trkpt>
      <trkpt lat="48.61901" lon="7.18338">
        <ele>451.9</ele>
        <time>2024-01-25T11:40:08Z</time>
      </trkpt>
      <trkpt lat="48.61888" lon="7.18318">
        <ele>452.2</ele>
        <time>2024-01-25T11:40:17Z</time>
      </trkpt>
      <trkpt lat="48.61875" lon="7.18299">
        <ele>453.5</ele>
        <time>2024-01-25T11:40:26Z</time>
      </trkpt>
      <trkpt lat="48.61865" lon="7.18275">
        <ele>455.8</ele>
        <time>2024-01-25T11:40:41Z</time>
      </trkpt>
      <trkpt lat="48.61853" lon="7.18264">
        <ele>457.7</ele>
        <time>2024-01-25T11:40:53Z</time>
      </trkpt>
      <trkpt lat="48.61853" lon="7.18254">
        <ele>459</ele>
        <time>2024-01-25T11:40:59Z</time>
      </trkpt>
      <trkpt lat="48.61854" lon="7.18226">
        <ele>463.2</ele>
        <time>2024-01-25T11:41:13Z</time>
      </trkpt>
      <trkpt lat="48.61846" lon="7.182">
        <ele>468</ele>
        <time>2024-01-25T11:41:26Z</time>
      </trkpt>
      <trkpt lat="48.61845" lon="7.18196">
        <ele>468.8</ele>
        <time>2024-01-25T11:41:28Z</time>
      </trkpt>
      <trkpt lat="48.6185" lon="7.1817">
        <ele>473.4</ele>
        <time>2024-01-25T11:41:39Z</time>
      </trkpt>
      <trkpt lat="48.61866" lon="7.18154">
        <ele>474.4</ele>
        <time>2024-01-25T11:41:48Z</time>
      </trkpt>
      <trkpt lat="48.61885" lon="7.18146">
        <ele>475.4</ele>
        <time>2024-01-25T11:41:55Z</time>
      </trkpt>
      <trkpt lat="48.61904" lon="7.18152">
        <ele>476.2</ele>
        <time>2024-01-25T11:42:03Z</time>
      </trkpt>
      <trkpt lat="48.61923" lon="7.18153">
        <ele>477</ele>
        <time>2024-01-25T11:42:12Z</time>
      </trkpt>
      <trkpt lat="48.61944" lon="7.18155">
        <ele>478</ele>
        <time>2024-01-25T11:42:20Z</time>
      </trkpt>
      <trkpt lat="48.61963" lon="7.1815">
        <ele>478.9</ele>
        <time>2024-01-25T11:42:27Z</time>
      </trkpt>
      <trkpt lat="48.61982" lon="7.18147">
        <ele>480.1</ele>
        <time>2024-01-25T11:42:36Z</time>
      </trkpt>
      <trkpt lat="48.62" lon="7.1814">
        <ele>481.5</ele>
        <time>2024-01-25T11:42:45Z</time>
      </trkpt>
      <trkpt lat="48.62019" lon="7.18133">
        <ele>483</ele>
        <time>2024-01-25T11:42:53Z</time>
      </trkpt>
      <trkpt lat="48.62037" lon="7.18121">
        <ele>484.5</ele>
        <time>2024-01-25T11:43:01Z</time>
      </trkpt>
      <trkpt lat="48.62053" lon="7.18104">
        <ele>485.6</ele>
        <time>2024-01-25T11:43:09Z</time>
      </trkpt>
      <trkpt lat="48.62073" lon="7.18093">
        <ele>485.8</ele>
        <time>2024-01-25T11:43:17Z</time>
      </trkpt>
      <trkpt lat="48.62093" lon="7.18084">
        <ele>485.2</ele>
        <time>2024-01-25T11:43:22Z</time>
      </trkpt>
      <trkpt lat="48.6211" lon="7.1807">
        <ele>484.6</ele>
        <time>2024-01-25T11:43:27Z</time>
      </trkpt>
      <trkpt lat="48.62124" lon="7.18049">
        <ele>484.2</ele>
        <time>2024-01-25T11:43:33Z</time>
      </trkpt>
      <trkpt lat="48.62137" lon="7.18025">
        <ele>483.8</ele>
        <time>2024-01-25T11:43:39Z</time>
      </trkpt>
      <trkpt lat="48.62147" lon="7.18002">
        <ele>483.6</ele>
        <time>2024-01-25T11:43:45Z</time>
      </trkpt>
      <trkpt lat="48.6216" lon="7.17978">
        <ele>483.5</ele>
        <time>2024-01-25T11:43:52Z</time>
      </trkpt>
      <trkpt lat="48.62168" lon="7.17949">
        <ele>483.2</ele>
        <time>2024-01-25T11:43:59Z</time>
      </trkpt>
      <trkpt lat="48.62175" lon="7.17924">
        <ele>483</ele>
        <time>2024-01-25T11:44:06Z</time>
      </trkpt>
      <trkpt lat="48.62186" lon="7.17898">
        <ele>482.9</ele>
        <time>2024-01-25T11:44:12Z</time>
      </trkpt>
      <trkpt lat="48.62202" lon="7.17881">
        <ele>483</ele>
        <time>2024-01-25T11:44:19Z</time>
      </trkpt>
      <trkpt lat="48.6222" lon="7.17866">
        <ele>483</ele>
        <time>2024-01-25T11:44:25Z</time>
      </trkpt>
      <trkpt lat="48.62237" lon="7.17853">
        <ele>483.1</ele>
        <time>2024-01-25T11:44:30Z</time>
      </trkpt>
      <trkpt lat="48.62255" lon="7.17841">
        <ele>483.2</ele>
        <time>2024-01-25T11:44:38Z</time>
      </trkpt>
      <trkpt lat="48.62273" lon="7.17829">
        <ele>483.3</ele>
        <time>2024-01-25T11:44:45Z</time>
      </trkpt>
      <trkpt lat="48.6229" lon="7.17821">
        <ele>483.6</ele>
        <time>2024-01-25T11:44:53Z</time>
      </trkpt>
      <trkpt lat="48.62308" lon="7.17816">
        <ele>484.2</ele>
        <time>2024-01-25T11:45:01Z</time>
      </trkpt>
      <trkpt lat="48.62328" lon="7.17814">
        <ele>485</ele>
        <time>2024-01-25T11:45:09Z</time>
      </trkpt>
      <trkpt lat="48.62346" lon="7.17808">
        <ele>485.5</ele>
        <time>2024-01-25T11:45:15Z</time>
      </trkpt>
      <trkpt lat="48.62366" lon="7.17805">
        <ele>485.9</ele>
        <time>2024-01-25T11:45:22Z</time>
      </trkpt>
      <trkpt lat="48.62385" lon="7.178">
        <ele>486.8</ele>
        <time>2024-01-25T11:45:32Z</time>
      </trkpt>
      <trkpt lat="48.62405" lon="7.17791">
        <ele>488.2</ele>
        <time>2024-01-25T11:45:40Z</time>
      </trkpt>
      <trkpt lat="48.62426" lon="7.17782">
        <ele>489.5</ele>
        <time>2024-01-25T11:45:47Z</time>
      </trkpt>
      <trkpt lat="48.62445" lon="7.1778">
        <ele>489.6</ele>
        <time>2024-01-25T11:45:56Z</time>
      </trkpt>
      <trkpt lat="48.62465" lon="7.17785">
        <ele>489.4</ele>
        <time>2024-01-25T11:46:03Z</time>
      </trkpt>
      <trkpt lat="48.62482" lon="7.17791">
        <ele>489.4</ele>
        <time>2024-01-25T11:46:09Z</time>
      </trkpt>
      <trkpt lat="48.625" lon="7.178">
        <ele>489.4</ele>
        <time>2024-01-25T11:46:15Z</time>
      </trkpt>
      <trkpt lat="48.62519" lon="7.17809">
        <ele>489.6</ele>
        <time>2024-01-25T11:46:21Z</time>
      </trkpt>
      <trkpt lat="48.62538" lon="7.17809">
        <ele>489.7</ele>
        <time>2024-01-25T11:46:28Z</time>
      </trkpt>
    </trkseg>
  </trk>
</gpx>